﻿<?xml version="1.0" encoding="UTF-8" standalone="no"?>
<gpx xmlns="http://www.topografix.com/GPX/1/1" creator="GPS-Track-Analyse.NET 4.x" version="1.1" xmlns:xsi="http://www.w3.org/2001/XMLSchema-instance" xsi:schemaLocation="http://www.topografix.com/GPX/1/1 http://www.topografix.com/GPX/1/1/gpx.xsd">
<metadata>
<link href="http://www.gps-freeware.de">
<text>Download GPS-Track-Analyse</text>
</link>
<time>2009-07-14T18:37:31.884Z</time>
<bounds maxlat="28.186728" maxlon="-17.309018" minlat="28.166492" minlon="-17.329858" />
</metadata>
<wpt lat="28.166499" lon="-17.320427">
<ele>326.024200</ele>
<time>2009-06-07T11:14:17.000Z</time>
<name>001</name>
<cmt>07-JUN-09 6:11:52</cmt>
<sym>Flag, Blue</sym>
</wpt>
<wpt lat="28.169121" lon="-17.328928">
<ele>196.726900</ele>
<time>2009-06-07T11:42:12.000Z</time>
<name>002</name>
<cmt>07-JUN-09 6:47:01</cmt>
<sym>Flag, Blue</sym>
</wpt>
<wpt lat="28.181743" lon="-17.312129">
<ele>276.516400</ele>
<time>2009-06-07T13:17:18.000Z</time>
<name>003</name>
<cmt>07-JUN-09 8:18:35</cmt>
<sym>Flag, Blue</sym>
</wpt>
<wpt lat="28.184354" lon="-17.312575">
<ele>315.449800</ele>
<time>2009-06-07T13:35:47.000Z</time>
<name>004</name>
<cmt>07-JUN-09 8:38:02</cmt>
<sym>Flag, Blue</sym>
</wpt>
<wpt lat="28.185911" lon="-17.309503">
<ele>359.670400</ele>
<time>2009-06-07T13:51:25.000Z</time>
<name>005</name>
<cmt>07-JUN-09 8:53:18</cmt>
<sym>Flag, Blue</sym>
</wpt>
<trk>
<name>ACTIVE LOG</name>
<trkseg>
<trkpt lat="28.166499" lon="-17.320427">
<ele>326.024200</ele>
<time>2009-06-07T11:14:17.000Z</time>
</trkpt>
<trkpt lat="28.166506" lon="-17.320504">
<ele>324.101600</ele>
<time>2009-06-07T11:20:17.000Z</time>
</trkpt>
<trkpt lat="28.166573" lon="-17.320601">
<ele>322.179000</ele>
<time>2009-06-07T11:20:28.000Z</time>
</trkpt>
<trkpt lat="28.166637" lon="-17.320688">
<ele>321.698400</ele>
<time>2009-06-07T11:20:37.000Z</time>
</trkpt>
<trkpt lat="28.166771" lon="-17.320830">
<ele>319.295000</ele>
<time>2009-06-07T11:20:51.000Z</time>
</trkpt>
<trkpt lat="28.166781" lon="-17.320836">
<ele>319.295000</ele>
<time>2009-06-07T11:20:52.000Z</time>
</trkpt>
<trkpt lat="28.166816" lon="-17.320925">
<ele>318.333600</ele>
<time>2009-06-07T11:21:01.000Z</time>
</trkpt>
<trkpt lat="28.166925" lon="-17.321094">
<ele>317.853000</ele>
<time>2009-06-07T11:21:15.000Z</time>
</trkpt>
<trkpt lat="28.166926" lon="-17.321108">
<ele>317.372400</ele>
<time>2009-06-07T11:21:16.000Z</time>
</trkpt>
<trkpt lat="28.166938" lon="-17.321151">
<ele>316.891700</ele>
<time>2009-06-07T11:21:31.000Z</time>
</trkpt>
<trkpt lat="28.166996" lon="-17.321248">
<ele>315.930400</ele>
<time>2009-06-07T11:21:43.000Z</time>
</trkpt>
<trkpt lat="28.167047" lon="-17.321404">
<ele>315.449800</ele>
<time>2009-06-07T11:21:57.000Z</time>
</trkpt>
<trkpt lat="28.167119" lon="-17.321504">
<ele>314.488400</ele>
<time>2009-06-07T11:22:10.000Z</time>
</trkpt>
<trkpt lat="28.167288" lon="-17.321623">
<ele>313.046500</ele>
<time>2009-06-07T11:22:29.000Z</time>
</trkpt>
<trkpt lat="28.167331" lon="-17.321665">
<ele>312.565800</ele>
<time>2009-06-07T11:22:42.000Z</time>
</trkpt>
<trkpt lat="28.167457" lon="-17.321786">
<ele>310.162500</ele>
<time>2009-06-07T11:22:58.000Z</time>
</trkpt>
<trkpt lat="28.167555" lon="-17.321867">
<ele>308.239900</ele>
<time>2009-06-07T11:23:12.000Z</time>
</trkpt>
<trkpt lat="28.167634" lon="-17.321979">
<ele>306.317300</ele>
<time>2009-06-07T11:23:27.000Z</time>
</trkpt>
<trkpt lat="28.167726" lon="-17.322100">
<ele>305.356000</ele>
<time>2009-06-07T11:23:40.000Z</time>
</trkpt>
<trkpt lat="28.167767" lon="-17.322201">
<ele>304.394700</ele>
<time>2009-06-07T11:23:53.000Z</time>
</trkpt>
<trkpt lat="28.167774" lon="-17.322282">
<ele>302.471900</ele>
<time>2009-06-07T11:24:09.000Z</time>
</trkpt>
<trkpt lat="28.167804" lon="-17.322274">
<ele>302.471900</ele>
<time>2009-06-07T11:24:33.000Z</time>
</trkpt>
<trkpt lat="28.167785" lon="-17.322430">
<ele>301.991300</ele>
<time>2009-06-07T11:24:59.000Z</time>
</trkpt>
<trkpt lat="28.167891" lon="-17.322555">
<ele>298.626700</ele>
<time>2009-06-07T11:25:15.000Z</time>
</trkpt>
<trkpt lat="28.167889" lon="-17.322658">
<ele>296.704100</ele>
<time>2009-06-07T11:25:29.000Z</time>
</trkpt>
<trkpt lat="28.167946" lon="-17.322833">
<ele>293.820100</ele>
<time>2009-06-07T11:25:48.000Z</time>
</trkpt>
<trkpt lat="28.167979" lon="-17.322862">
<ele>293.820100</ele>
<time>2009-06-07T11:25:50.000Z</time>
</trkpt>
<trkpt lat="28.168007" lon="-17.323005">
<ele>292.378200</ele>
<time>2009-06-07T11:26:07.000Z</time>
</trkpt>
<trkpt lat="28.168033" lon="-17.323073">
<ele>290.455600</ele>
<time>2009-06-07T11:26:22.000Z</time>
</trkpt>
<trkpt lat="28.168070" lon="-17.323169">
<ele>289.494100</ele>
<time>2009-06-07T11:26:33.000Z</time>
</trkpt>
<trkpt lat="28.168105" lon="-17.323329">
<ele>287.571400</ele>
<time>2009-06-07T11:26:53.000Z</time>
</trkpt>
<trkpt lat="28.168102" lon="-17.323402">
<ele>287.090800</ele>
<time>2009-06-07T11:27:16.000Z</time>
</trkpt>
<trkpt lat="28.168238" lon="-17.323312">
<ele>285.168200</ele>
<time>2009-06-07T11:27:34.000Z</time>
</trkpt>
<trkpt lat="28.168213" lon="-17.323111">
<ele>282.284300</ele>
<time>2009-06-07T11:27:56.000Z</time>
</trkpt>
<trkpt lat="28.168284" lon="-17.323154">
<ele>281.803600</ele>
<time>2009-06-07T11:28:04.000Z</time>
</trkpt>
<trkpt lat="28.168280" lon="-17.323243">
<ele>280.842400</ele>
<time>2009-06-07T11:28:13.000Z</time>
</trkpt>
<trkpt lat="28.168296" lon="-17.323313">
<ele>280.842400</ele>
<time>2009-06-07T11:28:20.000Z</time>
</trkpt>
<trkpt lat="28.168282" lon="-17.323345">
<ele>280.842400</ele>
<time>2009-06-07T11:28:23.000Z</time>
</trkpt>
<trkpt lat="28.168325" lon="-17.323502">
<ele>279.880900</ele>
<time>2009-06-07T11:28:38.000Z</time>
</trkpt>
<trkpt lat="28.168352" lon="-17.323586">
<ele>278.439000</ele>
<time>2009-06-07T11:28:57.000Z</time>
</trkpt>
<trkpt lat="28.168387" lon="-17.323740">
<ele>275.555100</ele>
<time>2009-06-07T11:29:15.000Z</time>
</trkpt>
<trkpt lat="28.168422" lon="-17.323837">
<ele>273.632400</ele>
<time>2009-06-07T11:29:24.000Z</time>
</trkpt>
<trkpt lat="28.168428" lon="-17.323957">
<ele>272.190400</ele>
<time>2009-06-07T11:29:35.000Z</time>
</trkpt>
<trkpt lat="28.168445" lon="-17.324042">
<ele>270.748400</ele>
<time>2009-06-07T11:29:42.000Z</time>
</trkpt>
<trkpt lat="28.168406" lon="-17.324188">
<ele>269.306500</ele>
<time>2009-06-07T11:29:57.000Z</time>
</trkpt>
<trkpt lat="28.168401" lon="-17.324322">
<ele>266.903200</ele>
<time>2009-06-07T11:30:12.000Z</time>
</trkpt>
<trkpt lat="28.168432" lon="-17.324475">
<ele>264.019300</ele>
<time>2009-06-07T11:30:31.000Z</time>
</trkpt>
<trkpt lat="28.168483" lon="-17.324618">
<ele>261.616000</ele>
<time>2009-06-07T11:30:46.000Z</time>
</trkpt>
<trkpt lat="28.168603" lon="-17.324764">
<ele>259.693400</ele>
<time>2009-06-07T11:31:06.000Z</time>
</trkpt>
<trkpt lat="28.168602" lon="-17.324832">
<ele>259.693400</ele>
<time>2009-06-07T11:31:22.000Z</time>
</trkpt>
<trkpt lat="28.168674" lon="-17.324887">
<ele>258.251300</ele>
<time>2009-06-07T11:31:52.000Z</time>
</trkpt>
<trkpt lat="28.168726" lon="-17.324831">
<ele>256.809300</ele>
<time>2009-06-07T11:32:10.000Z</time>
</trkpt>
<trkpt lat="28.168720" lon="-17.324835">
<ele>256.809300</ele>
<time>2009-06-07T11:33:19.000Z</time>
</trkpt>
<trkpt lat="28.168654" lon="-17.325011">
<ele>256.809300</ele>
<time>2009-06-07T11:33:36.000Z</time>
</trkpt>
<trkpt lat="28.168634" lon="-17.325075">
<ele>255.367300</ele>
<time>2009-06-07T11:33:44.000Z</time>
</trkpt>
<trkpt lat="28.168670" lon="-17.325342">
<ele>252.964000</ele>
<time>2009-06-07T11:34:07.000Z</time>
</trkpt>
<trkpt lat="28.168671" lon="-17.325523">
<ele>250.080200</ele>
<time>2009-06-07T11:34:23.000Z</time>
</trkpt>
<trkpt lat="28.168677" lon="-17.325657">
<ele>247.196000</ele>
<time>2009-06-07T11:34:42.000Z</time>
</trkpt>
<trkpt lat="28.168641" lon="-17.325893">
<ele>244.312300</ele>
<time>2009-06-07T11:35:01.000Z</time>
</trkpt>
<trkpt lat="28.168580" lon="-17.326041">
<ele>242.870200</ele>
<time>2009-06-07T11:35:14.000Z</time>
</trkpt>
<trkpt lat="28.168543" lon="-17.326178">
<ele>241.908900</ele>
<time>2009-06-07T11:35:31.000Z</time>
</trkpt>
<trkpt lat="28.168556" lon="-17.326177">
<ele>241.908900</ele>
<time>2009-06-07T11:35:51.000Z</time>
</trkpt>
<trkpt lat="28.168705" lon="-17.326079">
<ele>239.986200</ele>
<time>2009-06-07T11:36:06.000Z</time>
</trkpt>
<trkpt lat="28.168732" lon="-17.326040">
<ele>239.505500</ele>
<time>2009-06-07T11:36:09.000Z</time>
</trkpt>
<trkpt lat="28.168865" lon="-17.325761">
<ele>237.102300</ele>
<time>2009-06-07T11:36:33.000Z</time>
</trkpt>
<trkpt lat="28.168884" lon="-17.325691">
<ele>234.218400</ele>
<time>2009-06-07T11:36:54.000Z</time>
</trkpt>
<trkpt lat="28.168890" lon="-17.325872">
<ele>230.853800</ele>
<time>2009-06-07T11:37:15.000Z</time>
</trkpt>
<trkpt lat="28.168912" lon="-17.325986">
<ele>228.931200</ele>
<time>2009-06-07T11:37:29.000Z</time>
</trkpt>
<trkpt lat="28.168925" lon="-17.326167">
<ele>227.008500</ele>
<time>2009-06-07T11:37:43.000Z</time>
</trkpt>
<trkpt lat="28.168872" lon="-17.326330">
<ele>226.047100</ele>
<time>2009-06-07T11:37:58.000Z</time>
</trkpt>
<trkpt lat="28.168842" lon="-17.326532">
<ele>224.605200</ele>
<time>2009-06-07T11:38:14.000Z</time>
</trkpt>
<trkpt lat="28.168834" lon="-17.326617">
<ele>223.643800</ele>
<time>2009-06-07T11:38:19.000Z</time>
</trkpt>
<trkpt lat="28.168829" lon="-17.326711">
<ele>223.163200</ele>
<time>2009-06-07T11:38:26.000Z</time>
</trkpt>
<trkpt lat="28.168812" lon="-17.326861">
<ele>221.721200</ele>
<time>2009-06-07T11:38:38.000Z</time>
</trkpt>
<trkpt lat="28.168823" lon="-17.327024">
<ele>220.759900</ele>
<time>2009-06-07T11:38:53.000Z</time>
</trkpt>
<trkpt lat="28.168895" lon="-17.327073">
<ele>219.318000</ele>
<time>2009-06-07T11:39:09.000Z</time>
</trkpt>
<trkpt lat="28.168897" lon="-17.327194">
<ele>218.356600</ele>
<time>2009-06-07T11:39:24.000Z</time>
</trkpt>
<trkpt lat="28.168923" lon="-17.327328">
<ele>217.395400</ele>
<time>2009-06-07T11:39:37.000Z</time>
</trkpt>
<trkpt lat="28.168928" lon="-17.327339">
<ele>216.914700</ele>
<time>2009-06-07T11:39:38.000Z</time>
</trkpt>
<trkpt lat="28.168926" lon="-17.327393">
<ele>216.434000</ele>
<time>2009-06-07T11:39:42.000Z</time>
</trkpt>
<trkpt lat="28.168932" lon="-17.327414">
<ele>215.953200</ele>
<time>2009-06-07T11:39:44.000Z</time>
</trkpt>
<trkpt lat="28.168924" lon="-17.327566">
<ele>214.030600</ele>
<time>2009-06-07T11:40:00.000Z</time>
</trkpt>
<trkpt lat="28.168905" lon="-17.327584">
<ele>214.030600</ele>
<time>2009-06-07T11:40:02.000Z</time>
</trkpt>
<trkpt lat="28.168933" lon="-17.327749">
<ele>212.108000</ele>
<time>2009-06-07T11:40:15.000Z</time>
</trkpt>
<trkpt lat="28.168981" lon="-17.327863">
<ele>211.627400</ele>
<time>2009-06-07T11:40:25.000Z</time>
</trkpt>
<trkpt lat="28.168965" lon="-17.327907">
<ele>210.666000</ele>
<time>2009-06-07T11:40:29.000Z</time>
</trkpt>
<trkpt lat="28.168990" lon="-17.327972">
<ele>209.704800</ele>
<time>2009-06-07T11:40:35.000Z</time>
</trkpt>
<trkpt lat="28.169018" lon="-17.328167">
<ele>207.301400</ele>
<time>2009-06-07T11:40:53.000Z</time>
</trkpt>
<trkpt lat="28.169073" lon="-17.328439">
<ele>203.936900</ele>
<time>2009-06-07T11:41:14.000Z</time>
</trkpt>
<trkpt lat="28.169152" lon="-17.328647">
<ele>202.014300</ele>
<time>2009-06-07T11:41:34.000Z</time>
</trkpt>
<trkpt lat="28.169178" lon="-17.328752">
<ele>199.610800</ele>
<time>2009-06-07T11:41:53.000Z</time>
</trkpt>
<trkpt lat="28.169121" lon="-17.328928">
<ele>196.726900</ele>
<time>2009-06-07T11:42:12.000Z</time>
</trkpt>
<trkpt lat="28.169100" lon="-17.328985">
<ele>195.765600</ele>
<time>2009-06-07T11:42:18.000Z</time>
</trkpt>
<trkpt lat="28.168995" lon="-17.329072">
<ele>193.362300</ele>
<time>2009-06-07T11:42:33.000Z</time>
</trkpt>
<trkpt lat="28.168886" lon="-17.329240">
<ele>190.959000</ele>
<time>2009-06-07T11:42:53.000Z</time>
</trkpt>
<trkpt lat="28.168800" lon="-17.329284">
<ele>189.517000</ele>
<time>2009-06-07T11:44:00.000Z</time>
</trkpt>
<trkpt lat="28.168743" lon="-17.329336">
<ele>188.075100</ele>
<time>2009-06-07T11:44:06.000Z</time>
</trkpt>
<trkpt lat="28.168725" lon="-17.329410">
<ele>187.594400</ele>
<time>2009-06-07T11:44:11.000Z</time>
</trkpt>
<trkpt lat="28.168684" lon="-17.329454">
<ele>186.633200</ele>
<time>2009-06-07T11:44:19.000Z</time>
</trkpt>
<trkpt lat="28.168607" lon="-17.329472">
<ele>186.152500</ele>
<time>2009-06-07T11:44:25.000Z</time>
</trkpt>
<trkpt lat="28.168496" lon="-17.329624">
<ele>184.229900</ele>
<time>2009-06-07T11:44:39.000Z</time>
</trkpt>
<trkpt lat="28.168629" lon="-17.329630">
<ele>182.787800</ele>
<time>2009-06-07T11:45:07.000Z</time>
</trkpt>
<trkpt lat="28.168842" lon="-17.329516">
<ele>180.384500</ele>
<time>2009-06-07T11:45:31.000Z</time>
</trkpt>
<trkpt lat="28.168850" lon="-17.329503">
<ele>180.384500</ele>
<time>2009-06-07T11:45:32.000Z</time>
</trkpt>
<trkpt lat="28.169061" lon="-17.329429">
<ele>177.500600</ele>
<time>2009-06-07T11:45:56.000Z</time>
</trkpt>
<trkpt lat="28.169304" lon="-17.329462">
<ele>175.097300</ele>
<time>2009-06-07T11:46:16.000Z</time>
</trkpt>
<trkpt lat="28.169328" lon="-17.329601">
<ele>172.694000</ele>
<time>2009-06-07T11:46:29.000Z</time>
</trkpt>
<trkpt lat="28.169410" lon="-17.329788">
<ele>169.810100</ele>
<time>2009-06-07T11:46:47.000Z</time>
</trkpt>
<trkpt lat="28.169484" lon="-17.329852">
<ele>169.810100</ele>
<time>2009-06-07T11:46:59.000Z</time>
</trkpt>
<trkpt lat="28.169540" lon="-17.329817">
<ele>169.810100</ele>
<time>2009-06-07T11:47:06.000Z</time>
</trkpt>
<trkpt lat="28.169669" lon="-17.329656">
<ele>169.810100</ele>
<time>2009-06-07T11:47:20.000Z</time>
</trkpt>
<trkpt lat="28.169700" lon="-17.329628">
<ele>170.290600</ele>
<time>2009-06-07T11:47:23.000Z</time>
</trkpt>
<trkpt lat="28.169736" lon="-17.329597">
<ele>170.771400</ele>
<time>2009-06-07T11:47:27.000Z</time>
</trkpt>
<trkpt lat="28.169793" lon="-17.329500">
<ele>171.252100</ele>
<time>2009-06-07T11:47:39.000Z</time>
</trkpt>
<trkpt lat="28.169845" lon="-17.329348">
<ele>172.213300</ele>
<time>2009-06-07T11:47:53.000Z</time>
</trkpt>
<trkpt lat="28.169880" lon="-17.329194">
<ele>172.694000</ele>
<time>2009-06-07T11:48:05.000Z</time>
</trkpt>
<trkpt lat="28.169884" lon="-17.329185">
<ele>172.694000</ele>
<time>2009-06-07T11:48:06.000Z</time>
</trkpt>
<trkpt lat="28.169926" lon="-17.329026">
<ele>174.135900</ele>
<time>2009-06-07T11:48:18.000Z</time>
</trkpt>
<trkpt lat="28.169988" lon="-17.328844">
<ele>173.655300</ele>
<time>2009-06-07T11:48:32.000Z</time>
</trkpt>
<trkpt lat="28.170019" lon="-17.328799">
<ele>174.616600</ele>
<time>2009-06-07T11:48:37.000Z</time>
</trkpt>
<trkpt lat="28.170035" lon="-17.328641">
<ele>175.097300</ele>
<time>2009-06-07T11:48:49.000Z</time>
</trkpt>
<trkpt lat="28.170072" lon="-17.328494">
<ele>175.097300</ele>
<time>2009-06-07T11:49:01.000Z</time>
</trkpt>
<trkpt lat="28.170080" lon="-17.328430">
<ele>175.577900</ele>
<time>2009-06-07T11:49:05.000Z</time>
</trkpt>
<trkpt lat="28.170099" lon="-17.328206">
<ele>176.539300</ele>
<time>2009-06-07T11:49:21.000Z</time>
</trkpt>
<trkpt lat="28.170155" lon="-17.328006">
<ele>177.020000</ele>
<time>2009-06-07T11:49:35.000Z</time>
</trkpt>
<trkpt lat="28.170260" lon="-17.327862">
<ele>176.539300</ele>
<time>2009-06-07T11:49:49.000Z</time>
</trkpt>
<trkpt lat="28.170289" lon="-17.327807">
<ele>177.020000</ele>
<time>2009-06-07T11:49:54.000Z</time>
</trkpt>
<trkpt lat="28.170303" lon="-17.327783">
<ele>177.020000</ele>
<time>2009-06-07T11:49:56.000Z</time>
</trkpt>
<trkpt lat="28.170330" lon="-17.327635">
<ele>176.539300</ele>
<time>2009-06-07T11:50:11.000Z</time>
</trkpt>
<trkpt lat="28.170340" lon="-17.327476">
<ele>177.981200</ele>
<time>2009-06-07T11:50:23.000Z</time>
</trkpt>
<trkpt lat="28.170390" lon="-17.327376">
<ele>178.942600</ele>
<time>2009-06-07T11:50:32.000Z</time>
</trkpt>
<trkpt lat="28.170530" lon="-17.327291">
<ele>180.384500</ele>
<time>2009-06-07T11:50:46.000Z</time>
</trkpt>
<trkpt lat="28.170565" lon="-17.327280">
<ele>180.865200</ele>
<time>2009-06-07T11:50:49.000Z</time>
</trkpt>
<trkpt lat="28.170582" lon="-17.327264">
<ele>180.865200</ele>
<time>2009-06-07T11:50:51.000Z</time>
</trkpt>
<trkpt lat="28.170628" lon="-17.327219">
<ele>180.384500</ele>
<time>2009-06-07T11:51:07.000Z</time>
</trkpt>
<trkpt lat="28.170647" lon="-17.327146">
<ele>179.903800</ele>
<time>2009-06-07T11:51:14.000Z</time>
</trkpt>
<trkpt lat="28.170647" lon="-17.327019">
<ele>178.461900</ele>
<time>2009-06-07T11:51:36.000Z</time>
</trkpt>
<trkpt lat="28.170689" lon="-17.326770">
<ele>176.539300</ele>
<time>2009-06-07T11:51:56.000Z</time>
</trkpt>
<trkpt lat="28.170801" lon="-17.326563">
<ele>175.097300</ele>
<time>2009-06-07T11:52:15.000Z</time>
</trkpt>
<trkpt lat="28.170849" lon="-17.326365">
<ele>173.174700</ele>
<time>2009-06-07T11:52:46.000Z</time>
</trkpt>
<trkpt lat="28.170877" lon="-17.326189">
<ele>172.694000</ele>
<time>2009-06-07T11:52:54.000Z</time>
</trkpt>
<trkpt lat="28.170888" lon="-17.326060">
<ele>172.213300</ele>
<time>2009-06-07T11:53:00.000Z</time>
</trkpt>
<trkpt lat="28.170960" lon="-17.325835">
<ele>169.810100</ele>
<time>2009-06-07T11:53:21.000Z</time>
</trkpt>
<trkpt lat="28.170995" lon="-17.325736">
<ele>169.329500</ele>
<time>2009-06-07T11:53:27.000Z</time>
</trkpt>
<trkpt lat="28.170992" lon="-17.325577">
<ele>169.329500</ele>
<time>2009-06-07T11:53:39.000Z</time>
</trkpt>
<trkpt lat="28.171006" lon="-17.325539">
<ele>168.368000</ele>
<time>2009-06-07T11:53:43.000Z</time>
</trkpt>
<trkpt lat="28.171031" lon="-17.325381">
<ele>167.406700</ele>
<time>2009-06-07T11:53:55.000Z</time>
</trkpt>
<trkpt lat="28.171042" lon="-17.325319">
<ele>167.406700</ele>
<time>2009-06-07T11:54:00.000Z</time>
</trkpt>
<trkpt lat="28.171054" lon="-17.325140">
<ele>166.926000</ele>
<time>2009-06-07T11:54:15.000Z</time>
</trkpt>
<trkpt lat="28.171061" lon="-17.325115">
<ele>167.406700</ele>
<time>2009-06-07T11:54:17.000Z</time>
</trkpt>
<trkpt lat="28.171091" lon="-17.324930">
<ele>166.926000</ele>
<time>2009-06-07T11:54:39.000Z</time>
</trkpt>
<trkpt lat="28.171065" lon="-17.324635">
<ele>163.561500</ele>
<time>2009-06-07T11:55:05.000Z</time>
</trkpt>
<trkpt lat="28.171157" lon="-17.324311">
<ele>161.158200</ele>
<time>2009-06-07T11:55:35.000Z</time>
</trkpt>
<trkpt lat="28.171146" lon="-17.324302">
<ele>160.677500</ele>
<time>2009-06-07T11:55:37.000Z</time>
</trkpt>
<trkpt lat="28.171231" lon="-17.324031">
<ele>159.235500</ele>
<time>2009-06-07T11:56:00.000Z</time>
</trkpt>
<trkpt lat="28.171306" lon="-17.324044">
<ele>158.754800</ele>
<time>2009-06-07T11:56:13.000Z</time>
</trkpt>
<trkpt lat="28.171306" lon="-17.323984">
<ele>159.235500</ele>
<time>2009-06-07T11:56:46.000Z</time>
</trkpt>
<trkpt lat="28.171307" lon="-17.323932">
<ele>159.235500</ele>
<time>2009-06-07T11:57:42.000Z</time>
</trkpt>
<trkpt lat="28.171270" lon="-17.323941">
<ele>159.235500</ele>
<time>2009-06-07T11:58:26.000Z</time>
</trkpt>
<trkpt lat="28.171262" lon="-17.323924">
<ele>159.235500</ele>
<time>2009-06-07T11:59:34.000Z</time>
</trkpt>
<trkpt lat="28.171267" lon="-17.323956">
<ele>157.793600</ele>
<time>2009-06-07T12:01:19.000Z</time>
</trkpt>
<trkpt lat="28.171267" lon="-17.323957">
<ele>158.754800</ele>
<time>2009-06-07T12:01:23.000Z</time>
</trkpt>
<trkpt lat="28.171265" lon="-17.323954">
<ele>153.948400</ele>
<time>2009-06-07T12:01:40.000Z</time>
</trkpt>
<trkpt lat="28.171265" lon="-17.323954">
<ele>157.312900</ele>
<time>2009-06-07T12:01:41.000Z</time>
</trkpt>
<trkpt lat="28.171265" lon="-17.323954">
<ele>158.274200</ele>
<time>2009-06-07T12:01:43.000Z</time>
</trkpt>
<trkpt lat="28.171284" lon="-17.323989">
<ele>157.793600</ele>
<time>2009-06-07T12:01:57.000Z</time>
</trkpt>
<trkpt lat="28.171359" lon="-17.324129">
<ele>159.235500</ele>
<time>2009-06-07T12:02:10.000Z</time>
</trkpt>
<trkpt lat="28.171384" lon="-17.324295">
<ele>161.638900</ele>
<time>2009-06-07T12:02:24.000Z</time>
</trkpt>
<trkpt lat="28.171504" lon="-17.324504">
<ele>161.638900</ele>
<time>2009-06-07T12:02:39.000Z</time>
</trkpt>
<trkpt lat="28.171546" lon="-17.324540">
<ele>162.600100</ele>
<time>2009-06-07T12:02:43.000Z</time>
</trkpt>
<trkpt lat="28.171639" lon="-17.324681">
<ele>164.042100</ele>
<time>2009-06-07T12:02:59.000Z</time>
</trkpt>
<trkpt lat="28.171672" lon="-17.324736">
<ele>164.522700</ele>
<time>2009-06-07T12:03:04.000Z</time>
</trkpt>
<trkpt lat="28.171728" lon="-17.324821">
<ele>165.484100</ele>
<time>2009-06-07T12:03:12.000Z</time>
</trkpt>
<trkpt lat="28.171789" lon="-17.324945">
<ele>166.445300</ele>
<time>2009-06-07T12:03:21.000Z</time>
</trkpt>
<trkpt lat="28.171908" lon="-17.325068">
<ele>167.406700</ele>
<time>2009-06-07T12:03:34.000Z</time>
</trkpt>
<trkpt lat="28.171985" lon="-17.325234">
<ele>168.848800</ele>
<time>2009-06-07T12:03:50.000Z</time>
</trkpt>
<trkpt lat="28.172029" lon="-17.325359">
<ele>169.810100</ele>
<time>2009-06-07T12:04:02.000Z</time>
</trkpt>
<trkpt lat="28.172074" lon="-17.325543">
<ele>170.290600</ele>
<time>2009-06-07T12:04:16.000Z</time>
</trkpt>
<trkpt lat="28.172087" lon="-17.325682">
<ele>171.252100</ele>
<time>2009-06-07T12:04:28.000Z</time>
</trkpt>
<trkpt lat="28.172090" lon="-17.325733">
<ele>171.732700</ele>
<time>2009-06-07T12:04:32.000Z</time>
</trkpt>
<trkpt lat="28.172109" lon="-17.325926">
<ele>173.174700</ele>
<time>2009-06-07T12:04:46.000Z</time>
</trkpt>
<trkpt lat="28.172183" lon="-17.326046">
<ele>174.616600</ele>
<time>2009-06-07T12:04:56.000Z</time>
</trkpt>
<trkpt lat="28.172284" lon="-17.326108">
<ele>175.097300</ele>
<time>2009-06-07T12:05:06.000Z</time>
</trkpt>
<trkpt lat="28.172344" lon="-17.326057">
<ele>175.097300</ele>
<time>2009-06-07T12:05:20.000Z</time>
</trkpt>
<trkpt lat="28.172362" lon="-17.326021">
<ele>175.577900</ele>
<time>2009-06-07T12:07:26.000Z</time>
</trkpt>
<trkpt lat="28.172361" lon="-17.326015">
<ele>176.058600</ele>
<time>2009-06-07T12:07:49.000Z</time>
</trkpt>
<trkpt lat="28.172420" lon="-17.325842">
<ele>177.020000</ele>
<time>2009-06-07T12:08:09.000Z</time>
</trkpt>
<trkpt lat="28.172444" lon="-17.325769">
<ele>177.981200</ele>
<time>2009-06-07T12:08:14.000Z</time>
</trkpt>
<trkpt lat="28.172439" lon="-17.325742">
<ele>177.500600</ele>
<time>2009-06-07T12:08:17.000Z</time>
</trkpt>
<trkpt lat="28.172450" lon="-17.325710">
<ele>177.500600</ele>
<time>2009-06-07T12:08:21.000Z</time>
</trkpt>
<trkpt lat="28.172466" lon="-17.325673">
<ele>177.981200</ele>
<time>2009-06-07T12:08:25.000Z</time>
</trkpt>
<trkpt lat="28.172471" lon="-17.325642">
<ele>177.981200</ele>
<time>2009-06-07T12:08:27.000Z</time>
</trkpt>
<trkpt lat="28.172558" lon="-17.325479">
<ele>177.500600</ele>
<time>2009-06-07T12:08:43.000Z</time>
</trkpt>
<trkpt lat="28.172713" lon="-17.325350">
<ele>174.135900</ele>
<time>2009-06-07T12:08:57.000Z</time>
</trkpt>
<trkpt lat="28.172717" lon="-17.325339">
<ele>174.135900</ele>
<time>2009-06-07T12:08:58.000Z</time>
</trkpt>
<trkpt lat="28.172852" lon="-17.325226">
<ele>172.213300</ele>
<time>2009-06-07T12:09:13.000Z</time>
</trkpt>
<trkpt lat="28.172922" lon="-17.325170">
<ele>172.213300</ele>
<time>2009-06-07T12:09:21.000Z</time>
</trkpt>
<trkpt lat="28.172999" lon="-17.325097">
<ele>171.252100</ele>
<time>2009-06-07T12:09:28.000Z</time>
</trkpt>
<trkpt lat="28.173060" lon="-17.325048">
<ele>170.290600</ele>
<time>2009-06-07T12:09:34.000Z</time>
</trkpt>
<trkpt lat="28.173144" lon="-17.324933">
<ele>169.810100</ele>
<time>2009-06-07T12:09:45.000Z</time>
</trkpt>
<trkpt lat="28.173254" lon="-17.324753">
<ele>169.329500</ele>
<time>2009-06-07T12:10:00.000Z</time>
</trkpt>
<trkpt lat="28.173299" lon="-17.324707">
<ele>169.810100</ele>
<time>2009-06-07T12:10:05.000Z</time>
</trkpt>
<trkpt lat="28.173322" lon="-17.324568">
<ele>168.368000</ele>
<time>2009-06-07T12:10:22.000Z</time>
</trkpt>
<trkpt lat="28.173318" lon="-17.324465">
<ele>166.445300</ele>
<time>2009-06-07T12:10:50.000Z</time>
</trkpt>
<trkpt lat="28.173406" lon="-17.324413">
<ele>168.848800</ele>
<time>2009-06-07T12:10:55.000Z</time>
</trkpt>
<trkpt lat="28.173453" lon="-17.324356">
<ele>168.368000</ele>
<time>2009-06-07T12:11:00.000Z</time>
</trkpt>
<trkpt lat="28.173502" lon="-17.324247">
<ele>168.368000</ele>
<time>2009-06-07T12:11:08.000Z</time>
</trkpt>
<trkpt lat="28.173534" lon="-17.324198">
<ele>167.887300</ele>
<time>2009-06-07T12:11:12.000Z</time>
</trkpt>
<trkpt lat="28.173589" lon="-17.324130">
<ele>167.406700</ele>
<time>2009-06-07T12:11:18.000Z</time>
</trkpt>
<trkpt lat="28.173676" lon="-17.323970">
<ele>166.445300</ele>
<time>2009-06-07T12:11:30.000Z</time>
</trkpt>
<trkpt lat="28.173681" lon="-17.323944">
<ele>166.445300</ele>
<time>2009-06-07T12:11:32.000Z</time>
</trkpt>
<trkpt lat="28.173695" lon="-17.323707">
<ele>165.964700</ele>
<time>2009-06-07T12:11:48.000Z</time>
</trkpt>
<trkpt lat="28.173784" lon="-17.323553">
<ele>164.042100</ele>
<time>2009-06-07T12:12:04.000Z</time>
</trkpt>
<trkpt lat="28.173837" lon="-17.323396">
<ele>163.080800</ele>
<time>2009-06-07T12:12:17.000Z</time>
</trkpt>
<trkpt lat="28.174049" lon="-17.323382">
<ele>162.119500</ele>
<time>2009-06-07T12:12:32.000Z</time>
</trkpt>
<trkpt lat="28.174232" lon="-17.323509">
<ele>161.638900</ele>
<time>2009-06-07T12:12:44.000Z</time>
</trkpt>
<trkpt lat="28.174314" lon="-17.323520">
<ele>161.638900</ele>
<time>2009-06-07T12:13:02.000Z</time>
</trkpt>
<trkpt lat="28.174434" lon="-17.323560">
<ele>162.119500</ele>
<time>2009-06-07T12:13:17.000Z</time>
</trkpt>
<trkpt lat="28.174592" lon="-17.323524">
<ele>162.119500</ele>
<time>2009-06-07T12:13:46.000Z</time>
</trkpt>
<trkpt lat="28.174584" lon="-17.323537">
<ele>162.119500</ele>
<time>2009-06-07T12:14:04.000Z</time>
</trkpt>
<trkpt lat="28.174673" lon="-17.323333">
<ele>161.638900</ele>
<time>2009-06-07T12:14:19.000Z</time>
</trkpt>
<trkpt lat="28.174708" lon="-17.323305">
<ele>161.638900</ele>
<time>2009-06-07T12:14:22.000Z</time>
</trkpt>
<trkpt lat="28.174892" lon="-17.323194">
<ele>160.196900</ele>
<time>2009-06-07T12:14:37.000Z</time>
</trkpt>
<trkpt lat="28.175034" lon="-17.323124">
<ele>159.235500</ele>
<time>2009-06-07T12:14:50.000Z</time>
</trkpt>
<trkpt lat="28.175098" lon="-17.323068">
<ele>159.235500</ele>
<time>2009-06-07T12:15:06.000Z</time>
</trkpt>
<trkpt lat="28.175124" lon="-17.323076">
<ele>159.716200</ele>
<time>2009-06-07T12:16:00.000Z</time>
</trkpt>
<trkpt lat="28.175148" lon="-17.322926">
<ele>161.158200</ele>
<time>2009-06-07T12:16:09.000Z</time>
</trkpt>
<trkpt lat="28.175194" lon="-17.322749">
<ele>161.158200</ele>
<time>2009-06-07T12:16:23.000Z</time>
</trkpt>
<trkpt lat="28.175230" lon="-17.322703">
<ele>160.677500</ele>
<time>2009-06-07T12:16:38.000Z</time>
</trkpt>
<trkpt lat="28.175238" lon="-17.322671">
<ele>160.677500</ele>
<time>2009-06-07T12:16:58.000Z</time>
</trkpt>
<trkpt lat="28.175302" lon="-17.322455">
<ele>162.119500</ele>
<time>2009-06-07T12:17:26.000Z</time>
</trkpt>
<trkpt lat="28.175365" lon="-17.322279">
<ele>162.600100</ele>
<time>2009-06-07T12:17:40.000Z</time>
</trkpt>
<trkpt lat="28.175391" lon="-17.322170">
<ele>164.042100</ele>
<time>2009-06-07T12:17:52.000Z</time>
</trkpt>
<trkpt lat="28.175497" lon="-17.322004">
<ele>164.522700</ele>
<time>2009-06-07T12:18:08.000Z</time>
</trkpt>
<trkpt lat="28.175496" lon="-17.321984">
<ele>165.003400</ele>
<time>2009-06-07T12:18:20.000Z</time>
</trkpt>
<trkpt lat="28.175448" lon="-17.321847">
<ele>166.926000</ele>
<time>2009-06-07T12:18:44.000Z</time>
</trkpt>
<trkpt lat="28.175437" lon="-17.321792">
<ele>166.926000</ele>
<time>2009-06-07T12:20:33.000Z</time>
</trkpt>
<trkpt lat="28.175410" lon="-17.321760">
<ele>167.406700</ele>
<time>2009-06-07T12:20:36.000Z</time>
</trkpt>
<trkpt lat="28.175406" lon="-17.321719">
<ele>168.368000</ele>
<time>2009-06-07T12:20:39.000Z</time>
</trkpt>
<trkpt lat="28.175354" lon="-17.321545">
<ele>168.368000</ele>
<time>2009-06-07T12:20:55.000Z</time>
</trkpt>
<trkpt lat="28.175363" lon="-17.321448">
<ele>169.810100</ele>
<time>2009-06-07T12:21:02.000Z</time>
</trkpt>
<trkpt lat="28.175353" lon="-17.321425">
<ele>169.810100</ele>
<time>2009-06-07T12:21:04.000Z</time>
</trkpt>
<trkpt lat="28.175364" lon="-17.321404">
<ele>170.290600</ele>
<time>2009-06-07T12:21:06.000Z</time>
</trkpt>
<trkpt lat="28.175322" lon="-17.321344">
<ele>170.290600</ele>
<time>2009-06-07T12:21:12.000Z</time>
</trkpt>
<trkpt lat="28.175273" lon="-17.321333">
<ele>170.771400</ele>
<time>2009-06-07T12:21:14.000Z</time>
</trkpt>
<trkpt lat="28.175305" lon="-17.321283">
<ele>171.732700</ele>
<time>2009-06-07T12:21:18.000Z</time>
</trkpt>
<trkpt lat="28.175299" lon="-17.321242">
<ele>171.732700</ele>
<time>2009-06-07T12:21:20.000Z</time>
</trkpt>
<trkpt lat="28.175338" lon="-17.321171">
<ele>171.732700</ele>
<time>2009-06-07T12:21:24.000Z</time>
</trkpt>
<trkpt lat="28.175373" lon="-17.321011">
<ele>173.174700</ele>
<time>2009-06-07T12:21:37.000Z</time>
</trkpt>
<trkpt lat="28.175400" lon="-17.320979">
<ele>173.174700</ele>
<time>2009-06-07T12:21:40.000Z</time>
</trkpt>
<trkpt lat="28.175413" lon="-17.320950">
<ele>173.174700</ele>
<time>2009-06-07T12:21:42.000Z</time>
</trkpt>
<trkpt lat="28.175412" lon="-17.320919">
<ele>173.174700</ele>
<time>2009-06-07T12:21:44.000Z</time>
</trkpt>
<trkpt lat="28.175380" lon="-17.320881">
<ele>173.655300</ele>
<time>2009-06-07T12:21:50.000Z</time>
</trkpt>
<trkpt lat="28.175336" lon="-17.320727">
<ele>175.097300</ele>
<time>2009-06-07T12:22:06.000Z</time>
</trkpt>
<trkpt lat="28.175278" lon="-17.320535">
<ele>178.461900</ele>
<time>2009-06-07T12:22:23.000Z</time>
</trkpt>
<trkpt lat="28.175233" lon="-17.320404">
<ele>180.384500</ele>
<time>2009-06-07T12:22:42.000Z</time>
</trkpt>
<trkpt lat="28.175196" lon="-17.320316">
<ele>181.826400</ele>
<time>2009-06-07T12:23:06.000Z</time>
</trkpt>
<trkpt lat="28.175149" lon="-17.320216">
<ele>182.787800</ele>
<time>2009-06-07T12:23:12.000Z</time>
</trkpt>
<trkpt lat="28.175114" lon="-17.320104">
<ele>184.229900</ele>
<time>2009-06-07T12:23:21.000Z</time>
</trkpt>
<trkpt lat="28.174997" lon="-17.319911">
<ele>185.671800</ele>
<time>2009-06-07T12:23:37.000Z</time>
</trkpt>
<trkpt lat="28.174837" lon="-17.319761">
<ele>187.113800</ele>
<time>2009-06-07T12:23:55.000Z</time>
</trkpt>
<trkpt lat="28.174704" lon="-17.319674">
<ele>187.594400</ele>
<time>2009-06-07T12:24:07.000Z</time>
</trkpt>
<trkpt lat="28.174559" lon="-17.319668">
<ele>188.075100</ele>
<time>2009-06-07T12:24:20.000Z</time>
</trkpt>
<trkpt lat="28.174431" lon="-17.319625">
<ele>188.555800</ele>
<time>2009-06-07T12:24:31.000Z</time>
</trkpt>
<trkpt lat="28.174306" lon="-17.319616">
<ele>188.555800</ele>
<time>2009-06-07T12:24:41.000Z</time>
</trkpt>
<trkpt lat="28.174258" lon="-17.319534">
<ele>188.555800</ele>
<time>2009-06-07T12:24:54.000Z</time>
</trkpt>
<trkpt lat="28.174318" lon="-17.319504">
<ele>189.036400</ele>
<time>2009-06-07T12:24:56.000Z</time>
</trkpt>
<trkpt lat="28.174401" lon="-17.319406">
<ele>189.517000</ele>
<time>2009-06-07T12:25:02.000Z</time>
</trkpt>
<trkpt lat="28.174454" lon="-17.319333">
<ele>189.517000</ele>
<time>2009-06-07T12:25:08.000Z</time>
</trkpt>
<trkpt lat="28.174509" lon="-17.319251">
<ele>190.478400</ele>
<time>2009-06-07T12:25:16.000Z</time>
</trkpt>
<trkpt lat="28.174595" lon="-17.319186">
<ele>191.920300</ele>
<time>2009-06-07T12:25:23.000Z</time>
</trkpt>
<trkpt lat="28.174769" lon="-17.319143">
<ele>192.881700</ele>
<time>2009-06-07T12:25:38.000Z</time>
</trkpt>
<trkpt lat="28.174853" lon="-17.319073">
<ele>193.362300</ele>
<time>2009-06-07T12:25:49.000Z</time>
</trkpt>
<trkpt lat="28.175002" lon="-17.319010">
<ele>193.362300</ele>
<time>2009-06-07T12:26:02.000Z</time>
</trkpt>
<trkpt lat="28.175147" lon="-17.318951">
<ele>194.323700</ele>
<time>2009-06-07T12:26:14.000Z</time>
</trkpt>
<trkpt lat="28.175280" lon="-17.318846">
<ele>193.362300</ele>
<time>2009-06-07T12:26:28.000Z</time>
</trkpt>
<trkpt lat="28.175282" lon="-17.318713">
<ele>194.323700</ele>
<time>2009-06-07T12:26:37.000Z</time>
</trkpt>
<trkpt lat="28.175271" lon="-17.318645">
<ele>194.323700</ele>
<time>2009-06-07T12:26:41.000Z</time>
</trkpt>
<trkpt lat="28.175246" lon="-17.318408">
<ele>194.323700</ele>
<time>2009-06-07T12:26:59.000Z</time>
</trkpt>
<trkpt lat="28.175249" lon="-17.318354">
<ele>194.323700</ele>
<time>2009-06-07T12:27:02.000Z</time>
</trkpt>
<trkpt lat="28.175200" lon="-17.318153">
<ele>193.843000</ele>
<time>2009-06-07T12:27:16.000Z</time>
</trkpt>
<trkpt lat="28.175188" lon="-17.318054">
<ele>193.843000</ele>
<time>2009-06-07T12:27:23.000Z</time>
</trkpt>
<trkpt lat="28.175167" lon="-17.317874">
<ele>193.843000</ele>
<time>2009-06-07T12:27:38.000Z</time>
</trkpt>
<trkpt lat="28.175127" lon="-17.317683">
<ele>193.843000</ele>
<time>2009-06-07T12:27:51.000Z</time>
</trkpt>
<trkpt lat="28.175138" lon="-17.317619">
<ele>193.843000</ele>
<time>2009-06-07T12:27:56.000Z</time>
</trkpt>
<trkpt lat="28.175133" lon="-17.317543">
<ele>194.323700</ele>
<time>2009-06-07T12:28:02.000Z</time>
</trkpt>
<trkpt lat="28.175094" lon="-17.317412">
<ele>194.323700</ele>
<time>2009-06-07T12:28:11.000Z</time>
</trkpt>
<trkpt lat="28.175055" lon="-17.317221">
<ele>194.804300</ele>
<time>2009-06-07T12:28:24.000Z</time>
</trkpt>
<trkpt lat="28.175052" lon="-17.317207">
<ele>194.804300</ele>
<time>2009-06-07T12:28:25.000Z</time>
</trkpt>
<trkpt lat="28.175036" lon="-17.317046">
<ele>195.284900</ele>
<time>2009-06-07T12:28:37.000Z</time>
</trkpt>
<trkpt lat="28.175059" lon="-17.317005">
<ele>195.284900</ele>
<time>2009-06-07T12:28:41.000Z</time>
</trkpt>
<trkpt lat="28.175083" lon="-17.316932">
<ele>195.765600</ele>
<time>2009-06-07T12:28:47.000Z</time>
</trkpt>
<trkpt lat="28.175085" lon="-17.316881">
<ele>195.765600</ele>
<time>2009-06-07T12:28:56.000Z</time>
</trkpt>
<trkpt lat="28.175054" lon="-17.316769">
<ele>195.284900</ele>
<time>2009-06-07T12:29:02.000Z</time>
</trkpt>
<trkpt lat="28.174968" lon="-17.316596">
<ele>193.843000</ele>
<time>2009-06-07T12:29:16.000Z</time>
</trkpt>
<trkpt lat="28.174972" lon="-17.316504">
<ele>192.881700</ele>
<time>2009-06-07T12:29:27.000Z</time>
</trkpt>
<trkpt lat="28.175006" lon="-17.316500">
<ele>192.401100</ele>
<time>2009-06-07T12:29:49.000Z</time>
</trkpt>
<trkpt lat="28.175197" lon="-17.316526">
<ele>191.920300</ele>
<time>2009-06-07T12:30:03.000Z</time>
</trkpt>
<trkpt lat="28.175292" lon="-17.316493">
<ele>190.959000</ele>
<time>2009-06-07T12:30:14.000Z</time>
</trkpt>
<trkpt lat="28.175336" lon="-17.316451">
<ele>190.959000</ele>
<time>2009-06-07T12:30:18.000Z</time>
</trkpt>
<trkpt lat="28.175390" lon="-17.316376">
<ele>190.478400</ele>
<time>2009-06-07T12:30:24.000Z</time>
</trkpt>
<trkpt lat="28.175509" lon="-17.316255">
<ele>188.075100</ele>
<time>2009-06-07T12:30:42.000Z</time>
</trkpt>
<trkpt lat="28.175521" lon="-17.316255">
<ele>188.075100</ele>
<time>2009-06-07T12:30:43.000Z</time>
</trkpt>
<trkpt lat="28.175532" lon="-17.316278">
<ele>188.555800</ele>
<time>2009-06-07T12:30:46.000Z</time>
</trkpt>
<trkpt lat="28.175532" lon="-17.316301">
<ele>188.555800</ele>
<time>2009-06-07T12:30:48.000Z</time>
</trkpt>
<trkpt lat="28.175528" lon="-17.316494">
<ele>190.478400</ele>
<time>2009-06-07T12:31:03.000Z</time>
</trkpt>
<trkpt lat="28.175497" lon="-17.316562">
<ele>190.478400</ele>
<time>2009-06-07T12:31:18.000Z</time>
</trkpt>
<trkpt lat="28.175512" lon="-17.316683">
<ele>189.997700</ele>
<time>2009-06-07T12:31:30.000Z</time>
</trkpt>
<trkpt lat="28.175521" lon="-17.316735">
<ele>190.478400</ele>
<time>2009-06-07T12:31:34.000Z</time>
</trkpt>
<trkpt lat="28.175541" lon="-17.316904">
<ele>190.478400</ele>
<time>2009-06-07T12:31:45.000Z</time>
</trkpt>
<trkpt lat="28.175591" lon="-17.316995">
<ele>189.997700</ele>
<time>2009-06-07T12:31:52.000Z</time>
</trkpt>
<trkpt lat="28.175675" lon="-17.317193">
<ele>188.555800</ele>
<time>2009-06-07T12:32:08.000Z</time>
</trkpt>
<trkpt lat="28.175770" lon="-17.317388">
<ele>188.075100</ele>
<time>2009-06-07T12:32:24.000Z</time>
</trkpt>
<trkpt lat="28.175777" lon="-17.317425">
<ele>188.075100</ele>
<time>2009-06-07T12:32:26.000Z</time>
</trkpt>
<trkpt lat="28.175811" lon="-17.317486">
<ele>188.555800</ele>
<time>2009-06-07T12:32:31.000Z</time>
</trkpt>
<trkpt lat="28.175828" lon="-17.317520">
<ele>188.555800</ele>
<time>2009-06-07T12:32:33.000Z</time>
</trkpt>
<trkpt lat="28.175870" lon="-17.317534">
<ele>189.036400</ele>
<time>2009-06-07T12:32:37.000Z</time>
</trkpt>
<trkpt lat="28.176039" lon="-17.317611">
<ele>190.959000</ele>
<time>2009-06-07T12:32:54.000Z</time>
</trkpt>
<trkpt lat="28.176185" lon="-17.317592">
<ele>192.401100</ele>
<time>2009-06-07T12:33:07.000Z</time>
</trkpt>
<trkpt lat="28.176336" lon="-17.317582">
<ele>194.323700</ele>
<time>2009-06-07T12:33:22.000Z</time>
</trkpt>
<trkpt lat="28.176465" lon="-17.317496">
<ele>196.246300</ele>
<time>2009-06-07T12:33:38.000Z</time>
</trkpt>
<trkpt lat="28.176545" lon="-17.317455">
<ele>197.207500</ele>
<time>2009-06-07T12:33:52.000Z</time>
</trkpt>
<trkpt lat="28.176611" lon="-17.317395">
<ele>197.688200</ele>
<time>2009-06-07T12:34:20.000Z</time>
</trkpt>
<trkpt lat="28.176691" lon="-17.317318">
<ele>198.168900</ele>
<time>2009-06-07T12:34:30.000Z</time>
</trkpt>
<trkpt lat="28.176762" lon="-17.317277">
<ele>200.091700</ele>
<time>2009-06-07T12:34:38.000Z</time>
</trkpt>
<trkpt lat="28.176800" lon="-17.317249">
<ele>200.091700</ele>
<time>2009-06-07T12:34:42.000Z</time>
</trkpt>
<trkpt lat="28.176920" lon="-17.317150">
<ele>201.052900</ele>
<time>2009-06-07T12:34:55.000Z</time>
</trkpt>
<trkpt lat="28.177013" lon="-17.317050">
<ele>202.494900</ele>
<time>2009-06-07T12:35:09.000Z</time>
</trkpt>
<trkpt lat="28.177048" lon="-17.316942">
<ele>203.936900</ele>
<time>2009-06-07T12:35:24.000Z</time>
</trkpt>
<trkpt lat="28.177089" lon="-17.316867">
<ele>203.936900</ele>
<time>2009-06-07T12:35:51.000Z</time>
</trkpt>
<trkpt lat="28.177077" lon="-17.316873">
<ele>204.417500</ele>
<time>2009-06-07T12:36:21.000Z</time>
</trkpt>
<trkpt lat="28.177095" lon="-17.316832">
<ele>205.859500</ele>
<time>2009-06-07T12:36:50.000Z</time>
</trkpt>
<trkpt lat="28.177147" lon="-17.316668">
<ele>205.378800</ele>
<time>2009-06-07T12:37:05.000Z</time>
</trkpt>
<trkpt lat="28.177157" lon="-17.316630">
<ele>205.859500</ele>
<time>2009-06-07T12:37:09.000Z</time>
</trkpt>
<trkpt lat="28.177216" lon="-17.316551">
<ele>206.820700</ele>
<time>2009-06-07T12:37:17.000Z</time>
</trkpt>
<trkpt lat="28.177279" lon="-17.316513">
<ele>207.782100</ele>
<time>2009-06-07T12:37:28.000Z</time>
</trkpt>
<trkpt lat="28.177406" lon="-17.316382">
<ele>209.224100</ele>
<time>2009-06-07T12:37:44.000Z</time>
</trkpt>
<trkpt lat="28.177446" lon="-17.316233">
<ele>210.185400</ele>
<time>2009-06-07T12:37:58.000Z</time>
</trkpt>
<trkpt lat="28.177442" lon="-17.316218">
<ele>210.185400</ele>
<time>2009-06-07T12:37:59.000Z</time>
</trkpt>
<trkpt lat="28.177443" lon="-17.316167">
<ele>210.666000</ele>
<time>2009-06-07T12:38:02.000Z</time>
</trkpt>
<trkpt lat="28.177486" lon="-17.316081">
<ele>210.666000</ele>
<time>2009-06-07T12:38:12.000Z</time>
</trkpt>
<trkpt lat="28.177549" lon="-17.315990">
<ele>211.627400</ele>
<time>2009-06-07T12:38:20.000Z</time>
</trkpt>
<trkpt lat="28.177563" lon="-17.315943">
<ele>212.588600</ele>
<time>2009-06-07T12:38:25.000Z</time>
</trkpt>
<trkpt lat="28.177569" lon="-17.315911">
<ele>213.069300</ele>
<time>2009-06-07T12:38:28.000Z</time>
</trkpt>
<trkpt lat="28.177601" lon="-17.315898">
<ele>213.069300</ele>
<time>2009-06-07T12:38:42.000Z</time>
</trkpt>
<trkpt lat="28.177631" lon="-17.315833">
<ele>213.550000</ele>
<time>2009-06-07T12:40:25.000Z</time>
</trkpt>
<trkpt lat="28.177680" lon="-17.315701">
<ele>214.991900</ele>
<time>2009-06-07T12:40:39.000Z</time>
</trkpt>
<trkpt lat="28.177661" lon="-17.315539">
<ele>216.434000</ele>
<time>2009-06-07T12:40:54.000Z</time>
</trkpt>
<trkpt lat="28.177631" lon="-17.315446">
<ele>217.395400</ele>
<time>2009-06-07T12:41:03.000Z</time>
</trkpt>
<trkpt lat="28.177582" lon="-17.315266">
<ele>218.837300</ele>
<time>2009-06-07T12:41:20.000Z</time>
</trkpt>
<trkpt lat="28.177589" lon="-17.315197">
<ele>219.318000</ele>
<time>2009-06-07T12:41:26.000Z</time>
</trkpt>
<trkpt lat="28.177588" lon="-17.315115">
<ele>220.279200</ele>
<time>2009-06-07T12:41:44.000Z</time>
</trkpt>
<trkpt lat="28.177638" lon="-17.315122">
<ele>220.759900</ele>
<time>2009-06-07T12:42:04.000Z</time>
</trkpt>
<trkpt lat="28.177632" lon="-17.315102">
<ele>220.759900</ele>
<time>2009-06-07T12:43:00.000Z</time>
</trkpt>
<trkpt lat="28.177613" lon="-17.314890">
<ele>222.682500</ele>
<time>2009-06-07T12:43:16.000Z</time>
</trkpt>
<trkpt lat="28.177622" lon="-17.314871">
<ele>223.163200</ele>
<time>2009-06-07T12:43:17.000Z</time>
</trkpt>
<trkpt lat="28.177626" lon="-17.314826">
<ele>223.163200</ele>
<time>2009-06-07T12:43:20.000Z</time>
</trkpt>
<trkpt lat="28.177681" lon="-17.314718">
<ele>224.124500</ele>
<time>2009-06-07T12:43:32.000Z</time>
</trkpt>
<trkpt lat="28.177739" lon="-17.314739">
<ele>224.605200</ele>
<time>2009-06-07T12:43:37.000Z</time>
</trkpt>
<trkpt lat="28.177790" lon="-17.314839">
<ele>225.566500</ele>
<time>2009-06-07T12:43:47.000Z</time>
</trkpt>
<trkpt lat="28.177876" lon="-17.314969">
<ele>226.047100</ele>
<time>2009-06-07T12:44:00.000Z</time>
</trkpt>
<trkpt lat="28.177908" lon="-17.315006">
<ele>226.527800</ele>
<time>2009-06-07T12:44:04.000Z</time>
</trkpt>
<trkpt lat="28.177951" lon="-17.315128">
<ele>227.489100</ele>
<time>2009-06-07T12:44:16.000Z</time>
</trkpt>
<trkpt lat="28.178050" lon="-17.315297">
<ele>228.931200</ele>
<time>2009-06-07T12:44:34.000Z</time>
</trkpt>
<trkpt lat="28.178095" lon="-17.315319">
<ele>229.411700</ele>
<time>2009-06-07T12:44:53.000Z</time>
</trkpt>
<trkpt lat="28.178114" lon="-17.315322">
<ele>229.892300</ele>
<time>2009-06-07T12:44:55.000Z</time>
</trkpt>
<trkpt lat="28.178229" lon="-17.315287">
<ele>230.373000</ele>
<time>2009-06-07T12:45:13.000Z</time>
</trkpt>
<trkpt lat="28.178239" lon="-17.315277">
<ele>231.334400</ele>
<time>2009-06-07T12:45:39.000Z</time>
</trkpt>
<trkpt lat="28.178320" lon="-17.315175">
<ele>232.776500</ele>
<time>2009-06-07T12:45:53.000Z</time>
</trkpt>
<trkpt lat="28.178363" lon="-17.315112">
<ele>233.737700</ele>
<time>2009-06-07T12:46:00.000Z</time>
</trkpt>
<trkpt lat="28.178441" lon="-17.314990">
<ele>234.218400</ele>
<time>2009-06-07T12:46:14.000Z</time>
</trkpt>
<trkpt lat="28.178470" lon="-17.314973">
<ele>234.218400</ele>
<time>2009-06-07T12:46:16.000Z</time>
</trkpt>
<trkpt lat="28.178556" lon="-17.314870">
<ele>235.660300</ele>
<time>2009-06-07T12:46:31.000Z</time>
</trkpt>
<trkpt lat="28.178571" lon="-17.314846">
<ele>236.141000</ele>
<time>2009-06-07T12:46:34.000Z</time>
</trkpt>
<trkpt lat="28.178598" lon="-17.314740">
<ele>237.102300</ele>
<time>2009-06-07T12:46:43.000Z</time>
</trkpt>
<trkpt lat="28.178635" lon="-17.314709">
<ele>238.063600</ele>
<time>2009-06-07T12:46:47.000Z</time>
</trkpt>
<trkpt lat="28.178722" lon="-17.314583">
<ele>238.063600</ele>
<time>2009-06-07T12:47:06.000Z</time>
</trkpt>
<trkpt lat="28.178668" lon="-17.314585">
<ele>238.063600</ele>
<time>2009-06-07T12:47:34.000Z</time>
</trkpt>
<trkpt lat="28.178688" lon="-17.314493">
<ele>237.582900</ele>
<time>2009-06-07T12:48:20.000Z</time>
</trkpt>
<trkpt lat="28.178675" lon="-17.314485">
<ele>237.102300</ele>
<time>2009-06-07T12:49:05.000Z</time>
</trkpt>
<trkpt lat="28.178678" lon="-17.314353">
<ele>237.582900</ele>
<time>2009-06-07T12:49:26.000Z</time>
</trkpt>
<trkpt lat="28.178667" lon="-17.314206">
<ele>237.102300</ele>
<time>2009-06-07T12:49:40.000Z</time>
</trkpt>
<trkpt lat="28.178729" lon="-17.314180">
<ele>237.102300</ele>
<time>2009-06-07T12:49:55.000Z</time>
</trkpt>
<trkpt lat="28.178747" lon="-17.314114">
<ele>236.141000</ele>
<time>2009-06-07T12:50:04.000Z</time>
</trkpt>
<trkpt lat="28.178843" lon="-17.313961">
<ele>234.218400</ele>
<time>2009-06-07T12:50:19.000Z</time>
</trkpt>
<trkpt lat="28.178906" lon="-17.313848">
<ele>232.295800</ele>
<time>2009-06-07T12:50:33.000Z</time>
</trkpt>
<trkpt lat="28.179016" lon="-17.313724">
<ele>230.853800</ele>
<time>2009-06-07T12:50:53.000Z</time>
</trkpt>
<trkpt lat="28.179135" lon="-17.313506">
<ele>228.931200</ele>
<time>2009-06-07T12:51:15.000Z</time>
</trkpt>
<trkpt lat="28.179167" lon="-17.313360">
<ele>228.450400</ele>
<time>2009-06-07T12:51:36.000Z</time>
</trkpt>
<trkpt lat="28.179053" lon="-17.313186">
<ele>226.047100</ele>
<time>2009-06-07T12:52:07.000Z</time>
</trkpt>
<trkpt lat="28.179054" lon="-17.312981">
<ele>225.085900</ele>
<time>2009-06-07T12:52:26.000Z</time>
</trkpt>
<trkpt lat="28.179152" lon="-17.312962">
<ele>224.124500</ele>
<time>2009-06-07T12:52:44.000Z</time>
</trkpt>
<trkpt lat="28.179259" lon="-17.313061">
<ele>225.566500</ele>
<time>2009-06-07T12:53:00.000Z</time>
</trkpt>
<trkpt lat="28.179276" lon="-17.313070">
<ele>226.047100</ele>
<time>2009-06-07T12:53:04.000Z</time>
</trkpt>
<trkpt lat="28.179374" lon="-17.313126">
<ele>227.969700</ele>
<time>2009-06-07T12:53:18.000Z</time>
</trkpt>
<trkpt lat="28.179473" lon="-17.313112">
<ele>228.450400</ele>
<time>2009-06-07T12:53:31.000Z</time>
</trkpt>
<trkpt lat="28.179565" lon="-17.313042">
<ele>228.450400</ele>
<time>2009-06-07T12:54:11.000Z</time>
</trkpt>
<trkpt lat="28.179545" lon="-17.313060">
<ele>227.489100</ele>
<time>2009-06-07T12:54:28.000Z</time>
</trkpt>
<trkpt lat="28.179537" lon="-17.313042">
<ele>227.489100</ele>
<time>2009-06-07T12:54:43.000Z</time>
</trkpt>
<trkpt lat="28.179460" lon="-17.313214">
<ele>227.489100</ele>
<time>2009-06-07T13:04:47.000Z</time>
</trkpt>
<trkpt lat="28.179521" lon="-17.313069">
<ele>227.489100</ele>
<time>2009-06-07T13:05:40.000Z</time>
</trkpt>
<trkpt lat="28.179490" lon="-17.313083">
<ele>227.969700</ele>
<time>2009-06-07T13:06:11.000Z</time>
</trkpt>
<trkpt lat="28.179475" lon="-17.312955">
<ele>227.969700</ele>
<time>2009-06-07T13:06:36.000Z</time>
</trkpt>
<trkpt lat="28.179569" lon="-17.312951">
<ele>227.969700</ele>
<time>2009-06-07T13:06:40.000Z</time>
</trkpt>
<trkpt lat="28.179887" lon="-17.312915">
<ele>228.931200</ele>
<time>2009-06-07T13:06:59.000Z</time>
</trkpt>
<trkpt lat="28.180111" lon="-17.312844">
<ele>229.892300</ele>
<time>2009-06-07T13:07:19.000Z</time>
</trkpt>
<trkpt lat="28.180273" lon="-17.312775">
<ele>230.853800</ele>
<time>2009-06-07T13:07:39.000Z</time>
</trkpt>
<trkpt lat="28.180244" lon="-17.312899">
<ele>232.295800</ele>
<time>2009-06-07T13:07:55.000Z</time>
</trkpt>
<trkpt lat="28.180210" lon="-17.312972">
<ele>232.776500</ele>
<time>2009-06-07T13:08:03.000Z</time>
</trkpt>
<trkpt lat="28.180196" lon="-17.313173">
<ele>233.737700</ele>
<time>2009-06-07T13:08:15.000Z</time>
</trkpt>
<trkpt lat="28.180180" lon="-17.313189">
<ele>234.218400</ele>
<time>2009-06-07T13:08:17.000Z</time>
</trkpt>
<trkpt lat="28.180110" lon="-17.313241">
<ele>235.660300</ele>
<time>2009-06-07T13:08:29.000Z</time>
</trkpt>
<trkpt lat="28.180065" lon="-17.313330">
<ele>236.621700</ele>
<time>2009-06-07T13:08:49.000Z</time>
</trkpt>
<trkpt lat="28.180074" lon="-17.313429">
<ele>237.102300</ele>
<time>2009-06-07T13:09:03.000Z</time>
</trkpt>
<trkpt lat="28.180086" lon="-17.313509">
<ele>238.063600</ele>
<time>2009-06-07T13:09:11.000Z</time>
</trkpt>
<trkpt lat="28.180070" lon="-17.313550">
<ele>238.544300</ele>
<time>2009-06-07T13:09:15.000Z</time>
</trkpt>
<trkpt lat="28.180063" lon="-17.313695">
<ele>239.986200</ele>
<time>2009-06-07T13:09:27.000Z</time>
</trkpt>
<trkpt lat="28.180093" lon="-17.313779">
<ele>241.428200</ele>
<time>2009-06-07T13:09:40.000Z</time>
</trkpt>
<trkpt lat="28.180183" lon="-17.313871">
<ele>242.870200</ele>
<time>2009-06-07T13:09:52.000Z</time>
</trkpt>
<trkpt lat="28.180181" lon="-17.313882">
<ele>242.870200</ele>
<time>2009-06-07T13:09:53.000Z</time>
</trkpt>
<trkpt lat="28.180332" lon="-17.313934">
<ele>242.389600</ele>
<time>2009-06-07T13:10:05.000Z</time>
</trkpt>
<trkpt lat="28.180409" lon="-17.313992">
<ele>243.350800</ele>
<time>2009-06-07T13:10:14.000Z</time>
</trkpt>
<trkpt lat="28.180418" lon="-17.314004">
<ele>243.831500</ele>
<time>2009-06-07T13:10:16.000Z</time>
</trkpt>
<trkpt lat="28.180468" lon="-17.314111">
<ele>244.792800</ele>
<time>2009-06-07T13:10:28.000Z</time>
</trkpt>
<trkpt lat="28.180526" lon="-17.314173">
<ele>245.273400</ele>
<time>2009-06-07T13:10:35.000Z</time>
</trkpt>
<trkpt lat="28.180660" lon="-17.314248">
<ele>246.234900</ele>
<time>2009-06-07T13:10:48.000Z</time>
</trkpt>
<trkpt lat="28.180710" lon="-17.314263">
<ele>246.715500</ele>
<time>2009-06-07T13:11:04.000Z</time>
</trkpt>
<trkpt lat="28.180763" lon="-17.314305">
<ele>246.715500</ele>
<time>2009-06-07T13:11:12.000Z</time>
</trkpt>
<trkpt lat="28.180885" lon="-17.314315">
<ele>248.638200</ele>
<time>2009-06-07T13:11:24.000Z</time>
</trkpt>
<trkpt lat="28.181028" lon="-17.314332">
<ele>249.118800</ele>
<time>2009-06-07T13:11:36.000Z</time>
</trkpt>
<trkpt lat="28.181198" lon="-17.314338">
<ele>250.560800</ele>
<time>2009-06-07T13:11:51.000Z</time>
</trkpt>
<trkpt lat="28.181349" lon="-17.314375">
<ele>252.002800</ele>
<time>2009-06-07T13:12:07.000Z</time>
</trkpt>
<trkpt lat="28.181453" lon="-17.314282">
<ele>253.925400</ele>
<time>2009-06-07T13:12:25.000Z</time>
</trkpt>
<trkpt lat="28.181417" lon="-17.314218">
<ele>254.406000</ele>
<time>2009-06-07T13:12:31.000Z</time>
</trkpt>
<trkpt lat="28.181279" lon="-17.314092">
<ele>256.328700</ele>
<time>2009-06-07T13:12:47.000Z</time>
</trkpt>
<trkpt lat="28.181247" lon="-17.314007">
<ele>257.770800</ele>
<time>2009-06-07T13:12:55.000Z</time>
</trkpt>
<trkpt lat="28.181151" lon="-17.313799">
<ele>260.174000</ele>
<time>2009-06-07T13:13:18.000Z</time>
</trkpt>
<trkpt lat="28.181069" lon="-17.313633">
<ele>261.135300</ele>
<time>2009-06-07T13:13:35.000Z</time>
</trkpt>
<trkpt lat="28.181026" lon="-17.313574">
<ele>262.096600</ele>
<time>2009-06-07T13:13:41.000Z</time>
</trkpt>
<trkpt lat="28.180987" lon="-17.313414">
<ele>263.057900</ele>
<time>2009-06-07T13:13:53.000Z</time>
</trkpt>
<trkpt lat="28.180979" lon="-17.313365">
<ele>263.538600</ele>
<time>2009-06-07T13:13:58.000Z</time>
</trkpt>
<trkpt lat="28.181001" lon="-17.313247">
<ele>264.499900</ele>
<time>2009-06-07T13:14:08.000Z</time>
</trkpt>
<trkpt lat="28.181010" lon="-17.313183">
<ele>264.499900</ele>
<time>2009-06-07T13:14:14.000Z</time>
</trkpt>
<trkpt lat="28.180974" lon="-17.313068">
<ele>264.980600</ele>
<time>2009-06-07T13:14:29.000Z</time>
</trkpt>
<trkpt lat="28.180978" lon="-17.313072">
<ele>264.980600</ele>
<time>2009-06-07T13:14:44.000Z</time>
</trkpt>
<trkpt lat="28.180961" lon="-17.313081">
<ele>265.461300</ele>
<time>2009-06-07T13:15:15.000Z</time>
</trkpt>
<trkpt lat="28.181121" lon="-17.312942">
<ele>265.941900</ele>
<time>2009-06-07T13:15:41.000Z</time>
</trkpt>
<trkpt lat="28.181244" lon="-17.312792">
<ele>267.864500</ele>
<time>2009-06-07T13:15:56.000Z</time>
</trkpt>
<trkpt lat="28.181324" lon="-17.312689">
<ele>269.306500</ele>
<time>2009-06-07T13:16:11.000Z</time>
</trkpt>
<trkpt lat="28.181347" lon="-17.312578">
<ele>270.748400</ele>
<time>2009-06-07T13:16:21.000Z</time>
</trkpt>
<trkpt lat="28.181503" lon="-17.312414">
<ele>273.151900</ele>
<time>2009-06-07T13:16:45.000Z</time>
</trkpt>
<trkpt lat="28.181615" lon="-17.312361">
<ele>274.593800</ele>
<time>2009-06-07T13:16:54.000Z</time>
</trkpt>
<trkpt lat="28.181743" lon="-17.312129">
<ele>276.516400</ele>
<time>2009-06-07T13:17:18.000Z</time>
</trkpt>
<trkpt lat="28.181854" lon="-17.311994">
<ele>277.958300</ele>
<time>2009-06-07T13:17:33.000Z</time>
</trkpt>
<trkpt lat="28.181878" lon="-17.311980">
<ele>277.477700</ele>
<time>2009-06-07T13:17:35.000Z</time>
</trkpt>
<trkpt lat="28.181968" lon="-17.311864">
<ele>279.400300</ele>
<time>2009-06-07T13:17:48.000Z</time>
</trkpt>
<trkpt lat="28.181990" lon="-17.311818">
<ele>279.400300</ele>
<time>2009-06-07T13:17:52.000Z</time>
</trkpt>
<trkpt lat="28.182006" lon="-17.311722">
<ele>280.361700</ele>
<time>2009-06-07T13:18:01.000Z</time>
</trkpt>
<trkpt lat="28.182107" lon="-17.311512">
<ele>282.765000</ele>
<time>2009-06-07T13:18:25.000Z</time>
</trkpt>
<trkpt lat="28.182133" lon="-17.311474">
<ele>283.726200</ele>
<time>2009-06-07T13:18:45.000Z</time>
</trkpt>
<trkpt lat="28.182151" lon="-17.311546">
<ele>282.765000</ele>
<time>2009-06-07T13:18:54.000Z</time>
</trkpt>
<trkpt lat="28.182151" lon="-17.311690">
<ele>281.323000</ele>
<time>2009-06-07T13:19:08.000Z</time>
</trkpt>
<trkpt lat="28.182155" lon="-17.311676">
<ele>281.803600</ele>
<time>2009-06-07T13:19:46.000Z</time>
</trkpt>
<trkpt lat="28.182060" lon="-17.311568">
<ele>282.284300</ele>
<time>2009-06-07T13:26:11.000Z</time>
</trkpt>
<trkpt lat="28.182025" lon="-17.311522">
<ele>282.765000</ele>
<time>2009-06-07T13:26:41.000Z</time>
</trkpt>
<trkpt lat="28.182146" lon="-17.311626">
<ele>283.245600</ele>
<time>2009-06-07T13:27:02.000Z</time>
</trkpt>
<trkpt lat="28.182147" lon="-17.311585">
<ele>285.168200</ele>
<time>2009-06-07T13:28:28.000Z</time>
</trkpt>
<trkpt lat="28.182200" lon="-17.311496">
<ele>286.129500</ele>
<time>2009-06-07T13:28:42.000Z</time>
</trkpt>
<trkpt lat="28.182277" lon="-17.311491">
<ele>286.610200</ele>
<time>2009-06-07T13:28:49.000Z</time>
</trkpt>
<trkpt lat="28.182362" lon="-17.311498">
<ele>288.052200</ele>
<time>2009-06-07T13:28:58.000Z</time>
</trkpt>
<trkpt lat="28.182427" lon="-17.311562">
<ele>288.533000</ele>
<time>2009-06-07T13:29:05.000Z</time>
</trkpt>
<trkpt lat="28.182414" lon="-17.311676">
<ele>289.013500</ele>
<time>2009-06-07T13:29:17.000Z</time>
</trkpt>
<trkpt lat="28.182344" lon="-17.311821">
<ele>290.455600</ele>
<time>2009-06-07T13:29:30.000Z</time>
</trkpt>
<trkpt lat="28.182253" lon="-17.312043">
<ele>290.936200</ele>
<time>2009-06-07T13:29:50.000Z</time>
</trkpt>
<trkpt lat="28.182247" lon="-17.312081">
<ele>290.936200</ele>
<time>2009-06-07T13:29:53.000Z</time>
</trkpt>
<trkpt lat="28.182253" lon="-17.312160">
<ele>291.416700</ele>
<time>2009-06-07T13:29:58.000Z</time>
</trkpt>
<trkpt lat="28.182264" lon="-17.312249">
<ele>291.897500</ele>
<time>2009-06-07T13:30:05.000Z</time>
</trkpt>
<trkpt lat="28.182293" lon="-17.312370">
<ele>292.378200</ele>
<time>2009-06-07T13:30:15.000Z</time>
</trkpt>
<trkpt lat="28.182402" lon="-17.312534">
<ele>291.897500</ele>
<time>2009-06-07T13:30:33.000Z</time>
</trkpt>
<trkpt lat="28.182505" lon="-17.312694">
<ele>293.339400</ele>
<time>2009-06-07T13:30:48.000Z</time>
</trkpt>
<trkpt lat="28.182598" lon="-17.312835">
<ele>295.262000</ele>
<time>2009-06-07T13:31:01.000Z</time>
</trkpt>
<trkpt lat="28.182707" lon="-17.312910">
<ele>295.742700</ele>
<time>2009-06-07T13:31:13.000Z</time>
</trkpt>
<trkpt lat="28.182858" lon="-17.312985">
<ele>298.146100</ele>
<time>2009-06-07T13:31:30.000Z</time>
</trkpt>
<trkpt lat="28.182981" lon="-17.312974">
<ele>300.549300</ele>
<time>2009-06-07T13:31:45.000Z</time>
</trkpt>
<trkpt lat="28.183040" lon="-17.312958">
<ele>301.029900</ele>
<time>2009-06-07T13:31:51.000Z</time>
</trkpt>
<trkpt lat="28.183247" lon="-17.312905">
<ele>301.029900</ele>
<time>2009-06-07T13:32:09.000Z</time>
</trkpt>
<trkpt lat="28.183351" lon="-17.312889">
<ele>302.471900</ele>
<time>2009-06-07T13:32:30.000Z</time>
</trkpt>
<trkpt lat="28.183506" lon="-17.312827">
<ele>304.394700</ele>
<time>2009-06-07T13:32:54.000Z</time>
</trkpt>
<trkpt lat="28.183607" lon="-17.312719">
<ele>306.317300</ele>
<time>2009-06-07T13:33:13.000Z</time>
</trkpt>
<trkpt lat="28.183749" lon="-17.312632">
<ele>307.759300</ele>
<time>2009-06-07T13:33:30.000Z</time>
</trkpt>
<trkpt lat="28.183786" lon="-17.312668">
<ele>307.759300</ele>
<time>2009-06-07T13:33:35.000Z</time>
</trkpt>
<trkpt lat="28.183851" lon="-17.312727">
<ele>309.201200</ele>
<time>2009-06-07T13:33:42.000Z</time>
</trkpt>
<trkpt lat="28.183881" lon="-17.312803">
<ele>309.201200</ele>
<time>2009-06-07T13:33:57.000Z</time>
</trkpt>
<trkpt lat="28.183913" lon="-17.312885">
<ele>310.643100</ele>
<time>2009-06-07T13:34:17.000Z</time>
</trkpt>
<trkpt lat="28.183972" lon="-17.312935">
<ele>312.085200</ele>
<time>2009-06-07T13:34:27.000Z</time>
</trkpt>
<trkpt lat="28.184008" lon="-17.312960">
<ele>312.565800</ele>
<time>2009-06-07T13:34:31.000Z</time>
</trkpt>
<trkpt lat="28.184073" lon="-17.312968">
<ele>312.565800</ele>
<time>2009-06-07T13:34:35.000Z</time>
</trkpt>
<trkpt lat="28.184179" lon="-17.312933">
<ele>312.565800</ele>
<time>2009-06-07T13:34:51.000Z</time>
</trkpt>
<trkpt lat="28.184187" lon="-17.312907">
<ele>312.565800</ele>
<time>2009-06-07T13:34:55.000Z</time>
</trkpt>
<trkpt lat="28.184219" lon="-17.312796">
<ele>313.046500</ele>
<time>2009-06-07T13:35:19.000Z</time>
</trkpt>
<trkpt lat="28.184264" lon="-17.312691">
<ele>314.007800</ele>
<time>2009-06-07T13:35:33.000Z</time>
</trkpt>
<trkpt lat="28.184354" lon="-17.312575">
<ele>315.449800</ele>
<time>2009-06-07T13:35:47.000Z</time>
</trkpt>
<trkpt lat="28.184421" lon="-17.312430">
<ele>315.449800</ele>
<time>2009-06-07T13:36:03.000Z</time>
</trkpt>
<trkpt lat="28.184405" lon="-17.312319">
<ele>316.891700</ele>
<time>2009-06-07T13:36:20.000Z</time>
</trkpt>
<trkpt lat="28.184355" lon="-17.312247">
<ele>317.853000</ele>
<time>2009-06-07T13:36:46.000Z</time>
</trkpt>
<trkpt lat="28.184374" lon="-17.312026">
<ele>319.775600</ele>
<time>2009-06-07T13:37:12.000Z</time>
</trkpt>
<trkpt lat="28.184437" lon="-17.311838">
<ele>320.737100</ele>
<time>2009-06-07T13:37:30.000Z</time>
</trkpt>
<trkpt lat="28.184445" lon="-17.311661">
<ele>321.698400</ele>
<time>2009-06-07T13:37:50.000Z</time>
</trkpt>
<trkpt lat="28.184472" lon="-17.311592">
<ele>323.140400</ele>
<time>2009-06-07T13:38:03.000Z</time>
</trkpt>
<trkpt lat="28.184462" lon="-17.311556">
<ele>323.621000</ele>
<time>2009-06-07T13:38:23.000Z</time>
</trkpt>
<trkpt lat="28.184498" lon="-17.311415">
<ele>325.063000</ele>
<time>2009-06-07T13:38:45.000Z</time>
</trkpt>
<trkpt lat="28.184630" lon="-17.311175">
<ele>326.985600</ele>
<time>2009-06-07T13:39:23.000Z</time>
</trkpt>
<trkpt lat="28.184691" lon="-17.310966">
<ele>327.946800</ele>
<time>2009-06-07T13:39:47.000Z</time>
</trkpt>
<trkpt lat="28.184732" lon="-17.310939">
<ele>327.466200</ele>
<time>2009-06-07T13:40:15.000Z</time>
</trkpt>
<trkpt lat="28.184801" lon="-17.310992">
<ele>327.946800</ele>
<time>2009-06-07T13:40:23.000Z</time>
</trkpt>
<trkpt lat="28.184908" lon="-17.311093">
<ele>330.350200</ele>
<time>2009-06-07T13:40:38.000Z</time>
</trkpt>
<trkpt lat="28.185008" lon="-17.311087">
<ele>331.792100</ele>
<time>2009-06-07T13:41:02.000Z</time>
</trkpt>
<trkpt lat="28.184989" lon="-17.311111">
<ele>332.272800</ele>
<time>2009-06-07T13:43:08.000Z</time>
</trkpt>
<trkpt lat="28.185060" lon="-17.311042">
<ele>332.753500</ele>
<time>2009-06-07T13:43:38.000Z</time>
</trkpt>
<trkpt lat="28.185149" lon="-17.310786">
<ele>336.118200</ele>
<time>2009-06-07T13:44:05.000Z</time>
</trkpt>
<trkpt lat="28.185168" lon="-17.310633">
<ele>336.118200</ele>
<time>2009-06-07T13:44:33.000Z</time>
</trkpt>
<trkpt lat="28.185101" lon="-17.310448">
<ele>338.521500</ele>
<time>2009-06-07T13:44:58.000Z</time>
</trkpt>
<trkpt lat="28.185073" lon="-17.310484">
<ele>338.521500</ele>
<time>2009-06-07T13:45:49.000Z</time>
</trkpt>
<trkpt lat="28.185089" lon="-17.310468">
<ele>338.040800</ele>
<time>2009-06-07T13:46:29.000Z</time>
</trkpt>
<trkpt lat="28.185108" lon="-17.310421">
<ele>338.040800</ele>
<time>2009-06-07T13:46:33.000Z</time>
</trkpt>
<trkpt lat="28.185149" lon="-17.310260">
<ele>338.521500</ele>
<time>2009-06-07T13:46:47.000Z</time>
</trkpt>
<trkpt lat="28.185184" lon="-17.310181">
<ele>339.002100</ele>
<time>2009-06-07T13:46:55.000Z</time>
</trkpt>
<trkpt lat="28.185257" lon="-17.310009">
<ele>339.963400</ele>
<time>2009-06-07T13:47:09.000Z</time>
</trkpt>
<trkpt lat="28.185274" lon="-17.309935">
<ele>340.924700</ele>
<time>2009-06-07T13:47:14.000Z</time>
</trkpt>
<trkpt lat="28.185378" lon="-17.309852">
<ele>342.847300</ele>
<time>2009-06-07T13:47:30.000Z</time>
</trkpt>
<trkpt lat="28.185287" lon="-17.309800">
<ele>344.289400</ele>
<time>2009-06-07T13:47:47.000Z</time>
</trkpt>
<trkpt lat="28.185234" lon="-17.309819">
<ele>344.770000</ele>
<time>2009-06-07T13:47:52.000Z</time>
</trkpt>
<trkpt lat="28.185201" lon="-17.309812">
<ele>345.731300</ele>
<time>2009-06-07T13:47:55.000Z</time>
</trkpt>
<trkpt lat="28.185096" lon="-17.309765">
<ele>347.173200</ele>
<time>2009-06-07T13:48:07.000Z</time>
</trkpt>
<trkpt lat="28.185061" lon="-17.309665">
<ele>349.576500</ele>
<time>2009-06-07T13:48:24.000Z</time>
</trkpt>
<trkpt lat="28.185048" lon="-17.309559">
<ele>351.499100</ele>
<time>2009-06-07T13:48:40.000Z</time>
</trkpt>
<trkpt lat="28.185087" lon="-17.309587">
<ele>351.979900</ele>
<time>2009-06-07T13:48:50.000Z</time>
</trkpt>
<trkpt lat="28.185201" lon="-17.309634">
<ele>353.902600</ele>
<time>2009-06-07T13:49:06.000Z</time>
</trkpt>
<trkpt lat="28.185282" lon="-17.309600">
<ele>354.383200</ele>
<time>2009-06-07T13:49:28.000Z</time>
</trkpt>
<trkpt lat="28.185456" lon="-17.309443">
<ele>356.305800</ele>
<time>2009-06-07T13:49:52.000Z</time>
</trkpt>
<trkpt lat="28.185566" lon="-17.309190">
<ele>357.267100</ele>
<time>2009-06-07T13:50:18.000Z</time>
</trkpt>
<trkpt lat="28.185574" lon="-17.309166">
<ele>358.228400</ele>
<time>2009-06-07T13:50:20.000Z</time>
</trkpt>
<trkpt lat="28.185624" lon="-17.309041">
<ele>357.747800</ele>
<time>2009-06-07T13:50:34.000Z</time>
</trkpt>
<trkpt lat="28.185800" lon="-17.309059">
<ele>357.747800</ele>
<time>2009-06-07T13:50:46.000Z</time>
</trkpt>
<trkpt lat="28.185806" lon="-17.309212">
<ele>360.151100</ele>
<time>2009-06-07T13:51:00.000Z</time>
</trkpt>
<trkpt lat="28.185840" lon="-17.309383">
<ele>359.670400</ele>
<time>2009-06-07T13:51:13.000Z</time>
</trkpt>
<trkpt lat="28.185911" lon="-17.309503">
<ele>359.670400</ele>
<time>2009-06-07T13:51:25.000Z</time>
</trkpt>
<trkpt lat="28.185945" lon="-17.309609">
<ele>360.151100</ele>
<time>2009-06-07T13:51:34.000Z</time>
</trkpt>
<trkpt lat="28.185960" lon="-17.309822">
<ele>362.073700</ele>
<time>2009-06-07T13:51:51.000Z</time>
</trkpt>
<trkpt lat="28.185966" lon="-17.309929">
<ele>362.554300</ele>
<time>2009-06-07T13:51:59.000Z</time>
</trkpt>
<trkpt lat="28.185989" lon="-17.309975">
<ele>363.035000</ele>
<time>2009-06-07T13:52:04.000Z</time>
</trkpt>
<trkpt lat="28.186129" lon="-17.310064">
<ele>363.035000</ele>
<time>2009-06-07T13:52:19.000Z</time>
</trkpt>
<trkpt lat="28.186310" lon="-17.310126">
<ele>363.515700</ele>
<time>2009-06-07T13:52:37.000Z</time>
</trkpt>
<trkpt lat="28.186327" lon="-17.310125">
<ele>363.996300</ele>
<time>2009-06-07T13:52:39.000Z</time>
</trkpt>
<trkpt lat="28.186540" lon="-17.310139">
<ele>364.476900</ele>
<time>2009-06-07T13:52:57.000Z</time>
</trkpt>
<trkpt lat="28.186555" lon="-17.310077">
<ele>363.515700</ele>
<time>2009-06-07T13:53:05.000Z</time>
</trkpt>
<trkpt lat="28.186590" lon="-17.309999">
<ele>365.438400</ele>
<time>2009-06-07T13:53:20.000Z</time>
</trkpt>
<trkpt lat="28.186728" lon="-17.310007">
<ele>364.957600</ele>
<time>2009-06-07T13:54:40.000Z</time>
</trkpt>
<trkpt lat="28.186665" lon="-17.310117">
<ele>366.880200</ele>
<time>2009-06-07T14:05:11.000Z</time>
</trkpt>
<trkpt lat="28.186622" lon="-17.310154">
<ele>366.399500</ele>
<time>2009-06-07T14:05:16.000Z</time>
</trkpt>
<trkpt lat="28.186489" lon="-17.310141">
<ele>366.399500</ele>
<time>2009-06-07T14:05:27.000Z</time>
</trkpt>
<trkpt lat="28.186443" lon="-17.310125">
<ele>365.918900</ele>
<time>2009-06-07T14:05:32.000Z</time>
</trkpt>
<trkpt lat="28.186366" lon="-17.310112">
<ele>365.438400</ele>
<time>2009-06-07T14:05:39.000Z</time>
</trkpt>
<trkpt lat="28.186228" lon="-17.310064">
<ele>364.957600</ele>
<time>2009-06-07T14:05:51.000Z</time>
</trkpt>
<trkpt lat="28.186073" lon="-17.309981">
<ele>363.996300</ele>
<time>2009-06-07T14:06:06.000Z</time>
</trkpt>
<trkpt lat="28.185995" lon="-17.309933">
<ele>364.476900</ele>
<time>2009-06-07T14:06:14.000Z</time>
</trkpt>
<trkpt lat="28.185983" lon="-17.309877">
<ele>363.996300</ele>
<time>2009-06-07T14:06:18.000Z</time>
</trkpt>
<trkpt lat="28.185972" lon="-17.309684">
<ele>363.035000</ele>
<time>2009-06-07T14:06:34.000Z</time>
</trkpt>
<trkpt lat="28.185949" lon="-17.309584">
<ele>361.112400</ele>
<time>2009-06-07T14:06:42.000Z</time>
</trkpt>
<trkpt lat="28.185891" lon="-17.309497">
<ele>360.631700</ele>
<time>2009-06-07T14:06:49.000Z</time>
</trkpt>
<trkpt lat="28.185782" lon="-17.309285">
<ele>360.151100</ele>
<time>2009-06-07T14:07:05.000Z</time>
</trkpt>
<trkpt lat="28.185805" lon="-17.309095">
<ele>360.151100</ele>
<time>2009-06-07T14:07:19.000Z</time>
</trkpt>
<trkpt lat="28.185786" lon="-17.309018">
<ele>359.189700</ele>
<time>2009-06-07T14:07:25.000Z</time>
</trkpt>
<trkpt lat="28.185638" lon="-17.309055">
<ele>359.670400</ele>
<time>2009-06-07T14:07:36.000Z</time>
</trkpt>
<trkpt lat="28.185604" lon="-17.309075">
<ele>359.670400</ele>
<time>2009-06-07T14:07:40.000Z</time>
</trkpt>
<trkpt lat="28.185574" lon="-17.309130">
<ele>358.709000</ele>
<time>2009-06-07T14:07:44.000Z</time>
</trkpt>
<trkpt lat="28.185494" lon="-17.309345">
<ele>357.747800</ele>
<time>2009-06-07T14:07:58.000Z</time>
</trkpt>
<trkpt lat="28.185439" lon="-17.309493">
<ele>357.267100</ele>
<time>2009-06-07T14:08:10.000Z</time>
</trkpt>
<trkpt lat="28.185303" lon="-17.309576">
<ele>355.825200</ele>
<time>2009-06-07T14:08:23.000Z</time>
</trkpt>
<trkpt lat="28.185186" lon="-17.309612">
<ele>354.383200</ele>
<time>2009-06-07T14:08:34.000Z</time>
</trkpt>
<trkpt lat="28.185134" lon="-17.309567">
<ele>353.421900</ele>
<time>2009-06-07T14:08:40.000Z</time>
</trkpt>
<trkpt lat="28.185032" lon="-17.309567">
<ele>351.499100</ele>
<time>2009-06-07T14:08:53.000Z</time>
</trkpt>
<trkpt lat="28.185106" lon="-17.309734">
<ele>348.615200</ele>
<time>2009-06-07T14:09:10.000Z</time>
</trkpt>
<trkpt lat="28.185232" lon="-17.309796">
<ele>346.212000</ele>
<time>2009-06-07T14:09:31.000Z</time>
</trkpt>
<trkpt lat="28.185344" lon="-17.309895">
<ele>343.327900</ele>
<time>2009-06-07T14:09:45.000Z</time>
</trkpt>
<trkpt lat="28.185253" lon="-17.309961">
<ele>341.886000</ele>
<time>2009-06-07T14:09:57.000Z</time>
</trkpt>
<trkpt lat="28.185176" lon="-17.310214">
<ele>339.963400</ele>
<time>2009-06-07T14:10:15.000Z</time>
</trkpt>
<trkpt lat="28.185147" lon="-17.310429">
<ele>339.002100</ele>
<time>2009-06-07T14:10:29.000Z</time>
</trkpt>
<trkpt lat="28.185139" lon="-17.310545">
<ele>339.002100</ele>
<time>2009-06-07T14:10:42.000Z</time>
</trkpt>
<trkpt lat="28.185148" lon="-17.310559">
<ele>339.002100</ele>
<time>2009-06-07T14:10:44.000Z</time>
</trkpt>
<trkpt lat="28.185159" lon="-17.310613">
<ele>338.040800</ele>
<time>2009-06-07T14:10:48.000Z</time>
</trkpt>
<trkpt lat="28.185147" lon="-17.310724">
<ele>337.560100</ele>
<time>2009-06-07T14:10:56.000Z</time>
</trkpt>
<trkpt lat="28.185163" lon="-17.310772">
<ele>337.079500</ele>
<time>2009-06-07T14:11:00.000Z</time>
</trkpt>
<trkpt lat="28.185135" lon="-17.310897">
<ele>334.676100</ele>
<time>2009-06-07T14:11:14.000Z</time>
</trkpt>
<trkpt lat="28.185095" lon="-17.310962">
<ele>333.714700</ele>
<time>2009-06-07T14:11:20.000Z</time>
</trkpt>
<trkpt lat="28.185078" lon="-17.311027">
<ele>333.234100</ele>
<time>2009-06-07T14:11:24.000Z</time>
</trkpt>
<trkpt lat="28.185047" lon="-17.311083">
<ele>332.753500</ele>
<time>2009-06-07T14:11:30.000Z</time>
</trkpt>
<trkpt lat="28.184935" lon="-17.311073">
<ele>331.311500</ele>
<time>2009-06-07T14:11:40.000Z</time>
</trkpt>
<trkpt lat="28.184747" lon="-17.311000">
<ele>327.946800</ele>
<time>2009-06-07T14:11:58.000Z</time>
</trkpt>
<trkpt lat="28.184697" lon="-17.311001">
<ele>327.466200</ele>
<time>2009-06-07T14:12:02.000Z</time>
</trkpt>
<trkpt lat="28.184653" lon="-17.311023">
<ele>326.985600</ele>
<time>2009-06-07T14:12:05.000Z</time>
</trkpt>
<trkpt lat="28.184616" lon="-17.311086">
<ele>326.985600</ele>
<time>2009-06-07T14:12:10.000Z</time>
</trkpt>
<trkpt lat="28.184569" lon="-17.311236">
<ele>325.543600</ele>
<time>2009-06-07T14:12:24.000Z</time>
</trkpt>
<trkpt lat="28.184576" lon="-17.311264">
<ele>325.063000</ele>
<time>2009-06-07T14:12:41.000Z</time>
</trkpt>
<trkpt lat="28.184540" lon="-17.311353">
<ele>324.582300</ele>
<time>2009-06-07T14:12:48.000Z</time>
</trkpt>
<trkpt lat="28.184474" lon="-17.311524">
<ele>323.140400</ele>
<time>2009-06-07T14:13:02.000Z</time>
</trkpt>
<trkpt lat="28.184440" lon="-17.311718">
<ele>321.217800</ele>
<time>2009-06-07T14:13:16.000Z</time>
</trkpt>
<trkpt lat="28.184415" lon="-17.311919">
<ele>320.256300</ele>
<time>2009-06-07T14:13:29.000Z</time>
</trkpt>
<trkpt lat="28.184372" lon="-17.312076">
<ele>319.775600</ele>
<time>2009-06-07T14:13:42.000Z</time>
</trkpt>
<trkpt lat="28.184393" lon="-17.312242">
<ele>318.333600</ele>
<time>2009-06-07T14:13:53.000Z</time>
</trkpt>
<trkpt lat="28.184450" lon="-17.312408">
<ele>316.891700</ele>
<time>2009-06-07T14:14:07.000Z</time>
</trkpt>
<trkpt lat="28.184444" lon="-17.312452">
<ele>316.411000</ele>
<time>2009-06-07T14:14:11.000Z</time>
</trkpt>
<trkpt lat="28.184376" lon="-17.312563">
<ele>314.969100</ele>
<time>2009-06-07T14:14:21.000Z</time>
</trkpt>
<trkpt lat="28.184364" lon="-17.312581">
<ele>314.488400</ele>
<time>2009-06-07T14:14:23.000Z</time>
</trkpt>
<trkpt lat="28.184329" lon="-17.312609">
<ele>314.488400</ele>
<time>2009-06-07T14:14:27.000Z</time>
</trkpt>
<trkpt lat="28.184279" lon="-17.312676">
<ele>313.046500</ele>
<time>2009-06-07T14:14:42.000Z</time>
</trkpt>
<trkpt lat="28.184218" lon="-17.312770">
<ele>312.085200</ele>
<time>2009-06-07T14:14:53.000Z</time>
</trkpt>
<trkpt lat="28.184094" lon="-17.312932">
<ele>311.604500</ele>
<time>2009-06-07T14:15:08.000Z</time>
</trkpt>
<trkpt lat="28.184056" lon="-17.312937">
<ele>311.604500</ele>
<time>2009-06-07T14:15:11.000Z</time>
</trkpt>
<trkpt lat="28.183973" lon="-17.312895">
<ele>310.162500</ele>
<time>2009-06-07T14:15:20.000Z</time>
</trkpt>
<trkpt lat="28.183844" lon="-17.312726">
<ele>309.201200</ele>
<time>2009-06-07T14:15:35.000Z</time>
</trkpt>
<trkpt lat="28.183711" lon="-17.312604">
<ele>306.317300</ele>
<time>2009-06-07T14:15:49.000Z</time>
</trkpt>
<trkpt lat="28.183577" lon="-17.312694">
<ele>304.875200</ele>
<time>2009-06-07T14:16:03.000Z</time>
</trkpt>
<trkpt lat="28.183434" lon="-17.312780">
<ele>301.991300</ele>
<time>2009-06-07T14:16:19.000Z</time>
</trkpt>
<trkpt lat="28.183264" lon="-17.312875">
<ele>300.068700</ele>
<time>2009-06-07T14:16:33.000Z</time>
</trkpt>
<trkpt lat="28.183201" lon="-17.312857">
<ele>299.588000</ele>
<time>2009-06-07T14:16:39.000Z</time>
</trkpt>
<trkpt lat="28.183015" lon="-17.312936">
<ele>298.626700</ele>
<time>2009-06-07T14:16:54.000Z</time>
</trkpt>
<trkpt lat="28.182839" lon="-17.312925">
<ele>296.704100</ele>
<time>2009-06-07T14:17:08.000Z</time>
</trkpt>
<trkpt lat="28.182806" lon="-17.312921">
<ele>296.223500</ele>
<time>2009-06-07T14:17:11.000Z</time>
</trkpt>
<trkpt lat="28.182647" lon="-17.312830">
<ele>295.262000</ele>
<time>2009-06-07T14:17:26.000Z</time>
</trkpt>
<trkpt lat="28.182605" lon="-17.312794">
<ele>294.781400</ele>
<time>2009-06-07T14:17:30.000Z</time>
</trkpt>
<trkpt lat="28.182486" lon="-17.312652">
<ele>293.820100</ele>
<time>2009-06-07T14:17:44.000Z</time>
</trkpt>
<trkpt lat="28.182395" lon="-17.312490">
<ele>292.378200</ele>
<time>2009-06-07T14:17:58.000Z</time>
</trkpt>
<trkpt lat="28.182286" lon="-17.312343">
<ele>291.416700</ele>
<time>2009-06-07T14:18:12.000Z</time>
</trkpt>
<trkpt lat="28.182234" lon="-17.312164">
<ele>290.455600</ele>
<time>2009-06-07T14:18:25.000Z</time>
</trkpt>
<trkpt lat="28.182216" lon="-17.312084">
<ele>290.455600</ele>
<time>2009-06-07T14:18:31.000Z</time>
</trkpt>
<trkpt lat="28.182296" lon="-17.311865">
<ele>289.974900</ele>
<time>2009-06-07T14:18:47.000Z</time>
</trkpt>
<trkpt lat="28.182385" lon="-17.311699">
<ele>287.571400</ele>
<time>2009-06-07T14:19:00.000Z</time>
</trkpt>
<trkpt lat="28.182428" lon="-17.311551">
<ele>287.571400</ele>
<time>2009-06-07T14:19:12.000Z</time>
</trkpt>
<trkpt lat="28.182411" lon="-17.311527">
<ele>287.090800</ele>
<time>2009-06-07T14:19:14.000Z</time>
</trkpt>
<trkpt lat="28.182292" lon="-17.311449">
<ele>286.129500</ele>
<time>2009-06-07T14:19:25.000Z</time>
</trkpt>
<trkpt lat="28.182106" lon="-17.311520">
<ele>283.245600</ele>
<time>2009-06-07T14:19:40.000Z</time>
</trkpt>
<trkpt lat="28.181995" lon="-17.311650">
<ele>281.803600</ele>
<time>2009-06-07T14:19:53.000Z</time>
</trkpt>
<trkpt lat="28.181971" lon="-17.311756">
<ele>281.323000</ele>
<time>2009-06-07T14:20:00.000Z</time>
</trkpt>
<trkpt lat="28.181936" lon="-17.311860">
<ele>279.880900</ele>
<time>2009-06-07T14:20:10.000Z</time>
</trkpt>
<trkpt lat="28.181897" lon="-17.311904">
<ele>279.400300</ele>
<time>2009-06-07T14:20:15.000Z</time>
</trkpt>
<trkpt lat="28.181878" lon="-17.311926">
<ele>279.400300</ele>
<time>2009-06-07T14:20:17.000Z</time>
</trkpt>
<trkpt lat="28.181773" lon="-17.312034">
<ele>278.439000</ele>
<time>2009-06-07T14:20:29.000Z</time>
</trkpt>
<trkpt lat="28.181661" lon="-17.312240">
<ele>276.035600</ele>
<time>2009-06-07T14:20:44.000Z</time>
</trkpt>
<trkpt lat="28.181543" lon="-17.312354">
<ele>275.555100</ele>
<time>2009-06-07T14:20:58.000Z</time>
</trkpt>
<trkpt lat="28.181426" lon="-17.312470">
<ele>273.151900</ele>
<time>2009-06-07T14:21:12.000Z</time>
</trkpt>
<trkpt lat="28.181337" lon="-17.312603">
<ele>271.229100</ele>
<time>2009-06-07T14:21:24.000Z</time>
</trkpt>
<trkpt lat="28.181255" lon="-17.312737">
<ele>269.306500</ele>
<time>2009-06-07T14:21:38.000Z</time>
</trkpt>
<trkpt lat="28.181171" lon="-17.312861">
<ele>267.864500</ele>
<time>2009-06-07T14:21:51.000Z</time>
</trkpt>
<trkpt lat="28.181110" lon="-17.312904">
<ele>267.383900</ele>
<time>2009-06-07T14:21:57.000Z</time>
</trkpt>
<trkpt lat="28.181032" lon="-17.312999">
<ele>266.903200</ele>
<time>2009-06-07T14:22:04.000Z</time>
</trkpt>
<trkpt lat="28.180974" lon="-17.313044">
<ele>266.422500</ele>
<time>2009-06-07T14:22:10.000Z</time>
</trkpt>
<trkpt lat="28.180932" lon="-17.313235">
<ele>266.422500</ele>
<time>2009-06-07T14:22:24.000Z</time>
</trkpt>
<trkpt lat="28.180932" lon="-17.313353">
<ele>265.941900</ele>
<time>2009-06-07T14:22:37.000Z</time>
</trkpt>
<trkpt lat="28.180941" lon="-17.313465">
<ele>264.980600</ele>
<time>2009-06-07T14:22:50.000Z</time>
</trkpt>
<trkpt lat="28.180963" lon="-17.313574">
<ele>264.499900</ele>
<time>2009-06-07T14:22:58.000Z</time>
</trkpt>
<trkpt lat="28.181042" lon="-17.313762">
<ele>263.057900</ele>
<time>2009-06-07T14:23:12.000Z</time>
</trkpt>
<trkpt lat="28.181160" lon="-17.313918">
<ele>261.616000</ele>
<time>2009-06-07T14:23:24.000Z</time>
</trkpt>
<trkpt lat="28.181243" lon="-17.314066">
<ele>260.654500</ele>
<time>2009-06-07T14:23:37.000Z</time>
</trkpt>
<trkpt lat="28.181375" lon="-17.314197">
<ele>257.770800</ele>
<time>2009-06-07T14:23:55.000Z</time>
</trkpt>
<trkpt lat="28.181402" lon="-17.314270">
<ele>257.290000</ele>
<time>2009-06-07T14:24:00.000Z</time>
</trkpt>
<trkpt lat="28.181361" lon="-17.314359">
<ele>257.290000</ele>
<time>2009-06-07T14:24:07.000Z</time>
</trkpt>
<trkpt lat="28.181347" lon="-17.314362">
<ele>256.809300</ele>
<time>2009-06-07T14:24:09.000Z</time>
</trkpt>
<trkpt lat="28.181208" lon="-17.314306">
<ele>254.886600</ele>
<time>2009-06-07T14:24:23.000Z</time>
</trkpt>
<trkpt lat="28.181015" lon="-17.314287">
<ele>253.444700</ele>
<time>2009-06-07T14:24:38.000Z</time>
</trkpt>
<trkpt lat="28.180963" lon="-17.314298">
<ele>252.483400</ele>
<time>2009-06-07T14:24:42.000Z</time>
</trkpt>
<trkpt lat="28.180850" lon="-17.314304">
<ele>251.522100</ele>
<time>2009-06-07T14:24:51.000Z</time>
</trkpt>
<trkpt lat="28.180679" lon="-17.314232">
<ele>250.080200</ele>
<time>2009-06-07T14:25:06.000Z</time>
</trkpt>
<trkpt lat="28.180600" lon="-17.314207">
<ele>248.638200</ele>
<time>2009-06-07T14:25:12.000Z</time>
</trkpt>
<trkpt lat="28.180475" lon="-17.314083">
<ele>247.676800</ele>
<time>2009-06-07T14:25:26.000Z</time>
</trkpt>
<trkpt lat="28.180419" lon="-17.314014">
<ele>246.715500</ele>
<time>2009-06-07T14:25:34.000Z</time>
</trkpt>
<trkpt lat="28.180357" lon="-17.313952">
<ele>246.234900</ele>
<time>2009-06-07T14:25:41.000Z</time>
</trkpt>
<trkpt lat="28.180331" lon="-17.313928">
<ele>245.754200</ele>
<time>2009-06-07T14:25:43.000Z</time>
</trkpt>
<trkpt lat="28.180149" lon="-17.313872">
<ele>245.273400</ele>
<time>2009-06-07T14:25:56.000Z</time>
</trkpt>
<trkpt lat="28.180135" lon="-17.313850">
<ele>245.273400</ele>
<time>2009-06-07T14:25:58.000Z</time>
</trkpt>
<trkpt lat="28.180077" lon="-17.313728">
<ele>243.831500</ele>
<time>2009-06-07T14:26:10.000Z</time>
</trkpt>
<trkpt lat="28.180094" lon="-17.313463">
<ele>241.428200</ele>
<time>2009-06-07T14:26:30.000Z</time>
</trkpt>
<trkpt lat="28.180144" lon="-17.313192">
<ele>238.063600</ele>
<time>2009-06-07T14:26:53.000Z</time>
</trkpt>
<trkpt lat="28.180245" lon="-17.312956">
<ele>236.621700</ele>
<time>2009-06-07T14:27:11.000Z</time>
</trkpt>
<trkpt lat="28.180279" lon="-17.312824">
<ele>234.218400</ele>
<time>2009-06-07T14:27:23.000Z</time>
</trkpt>
<trkpt lat="28.180207" lon="-17.312770">
<ele>234.218400</ele>
<time>2009-06-07T14:27:28.000Z</time>
</trkpt>
<trkpt lat="28.180166" lon="-17.312772">
<ele>233.257100</ele>
<time>2009-06-07T14:27:32.000Z</time>
</trkpt>
<trkpt lat="28.180154" lon="-17.312768">
<ele>233.737700</ele>
<time>2009-06-07T14:27:46.000Z</time>
</trkpt>
<trkpt lat="28.180046" lon="-17.312807">
<ele>233.257100</ele>
<time>2009-06-07T14:28:02.000Z</time>
</trkpt>
<trkpt lat="28.179857" lon="-17.312886">
<ele>233.257100</ele>
<time>2009-06-07T14:28:16.000Z</time>
</trkpt>
<trkpt lat="28.179711" lon="-17.312912">
<ele>232.776500</ele>
<time>2009-06-07T14:28:28.000Z</time>
</trkpt>
<trkpt lat="28.179585" lon="-17.312981">
<ele>232.295800</ele>
<time>2009-06-07T14:28:37.000Z</time>
</trkpt>
<trkpt lat="28.179457" lon="-17.313105">
<ele>231.334400</ele>
<time>2009-06-07T14:28:49.000Z</time>
</trkpt>
<trkpt lat="28.179374" lon="-17.313103">
<ele>230.373000</ele>
<time>2009-06-07T14:28:56.000Z</time>
</trkpt>
<trkpt lat="28.179289" lon="-17.313097">
<ele>229.411700</ele>
<time>2009-06-07T14:29:01.000Z</time>
</trkpt>
<trkpt lat="28.179252" lon="-17.313036">
<ele>227.969700</ele>
<time>2009-06-07T14:29:07.000Z</time>
</trkpt>
<trkpt lat="28.179218" lon="-17.312952">
<ele>226.527800</ele>
<time>2009-06-07T14:29:14.000Z</time>
</trkpt>
<trkpt lat="28.179076" lon="-17.312961">
<ele>225.566500</ele>
<time>2009-06-07T14:29:21.000Z</time>
</trkpt>
<trkpt lat="28.179033" lon="-17.313063">
<ele>227.489100</ele>
<time>2009-06-07T14:29:31.000Z</time>
</trkpt>
<trkpt lat="28.179028" lon="-17.313117">
<ele>228.450400</ele>
<time>2009-06-07T14:29:36.000Z</time>
</trkpt>
<trkpt lat="28.179051" lon="-17.313161">
<ele>228.931200</ele>
<time>2009-06-07T14:29:40.000Z</time>
</trkpt>
<trkpt lat="28.179047" lon="-17.313208">
<ele>229.892300</ele>
<time>2009-06-07T14:29:44.000Z</time>
</trkpt>
<trkpt lat="28.179082" lon="-17.313328">
<ele>230.373000</ele>
<time>2009-06-07T14:29:52.000Z</time>
</trkpt>
<trkpt lat="28.179083" lon="-17.313407">
<ele>230.853800</ele>
<time>2009-06-07T14:29:56.000Z</time>
</trkpt>
<trkpt lat="28.179102" lon="-17.313578">
<ele>232.295800</ele>
<time>2009-06-07T14:30:09.000Z</time>
</trkpt>
<trkpt lat="28.178971" lon="-17.313731">
<ele>233.737700</ele>
<time>2009-06-07T14:30:22.000Z</time>
</trkpt>
<trkpt lat="28.178935" lon="-17.313807">
<ele>234.218400</ele>
<time>2009-06-07T14:30:28.000Z</time>
</trkpt>
<trkpt lat="28.178916" lon="-17.313817">
<ele>234.699100</ele>
<time>2009-06-07T14:30:30.000Z</time>
</trkpt>
<trkpt lat="28.178862" lon="-17.313853">
<ele>235.660300</ele>
<time>2009-06-07T14:30:37.000Z</time>
</trkpt>
<trkpt lat="28.178846" lon="-17.313892">
<ele>236.141000</ele>
<time>2009-06-07T14:30:43.000Z</time>
</trkpt>
<trkpt lat="28.178775" lon="-17.313996">
<ele>237.582900</ele>
<time>2009-06-07T14:30:51.000Z</time>
</trkpt>
<trkpt lat="28.178756" lon="-17.314042">
<ele>238.544300</ele>
<time>2009-06-07T14:30:56.000Z</time>
</trkpt>
<trkpt lat="28.178768" lon="-17.314169">
<ele>239.505500</ele>
<time>2009-06-07T14:31:04.000Z</time>
</trkpt>
<trkpt lat="28.178732" lon="-17.314236">
<ele>240.467000</ele>
<time>2009-06-07T14:31:10.000Z</time>
</trkpt>
<trkpt lat="28.178688" lon="-17.314310">
<ele>241.428200</ele>
<time>2009-06-07T14:31:21.000Z</time>
</trkpt>
<trkpt lat="28.178701" lon="-17.314403">
<ele>241.908900</ele>
<time>2009-06-07T14:31:26.000Z</time>
</trkpt>
<trkpt lat="28.178684" lon="-17.314531">
<ele>242.389600</ele>
<time>2009-06-07T14:31:37.000Z</time>
</trkpt>
<trkpt lat="28.178605" lon="-17.314727">
<ele>240.947600</ele>
<time>2009-06-07T14:31:53.000Z</time>
</trkpt>
<trkpt lat="28.178519" lon="-17.314898">
<ele>238.063600</ele>
<time>2009-06-07T14:32:08.000Z</time>
</trkpt>
<trkpt lat="28.178403" lon="-17.315030">
<ele>237.102300</ele>
<time>2009-06-07T14:32:22.000Z</time>
</trkpt>
<trkpt lat="28.178336" lon="-17.315134">
<ele>235.660300</ele>
<time>2009-06-07T14:32:31.000Z</time>
</trkpt>
<trkpt lat="28.178317" lon="-17.315143">
<ele>235.179700</ele>
<time>2009-06-07T14:32:33.000Z</time>
</trkpt>
<trkpt lat="28.178234" lon="-17.315277">
<ele>234.699100</ele>
<time>2009-06-07T14:32:44.000Z</time>
</trkpt>
<trkpt lat="28.178095" lon="-17.315275">
<ele>232.295800</ele>
<time>2009-06-07T14:32:58.000Z</time>
</trkpt>
<trkpt lat="28.178081" lon="-17.315273">
<ele>232.295800</ele>
<time>2009-06-07T14:33:00.000Z</time>
</trkpt>
<trkpt lat="28.178047" lon="-17.315278">
<ele>232.295800</ele>
<time>2009-06-07T14:33:02.000Z</time>
</trkpt>
<trkpt lat="28.177997" lon="-17.315238">
<ele>231.814900</ele>
<time>2009-06-07T14:33:07.000Z</time>
</trkpt>
<trkpt lat="28.177950" lon="-17.315144">
<ele>230.373000</ele>
<time>2009-06-07T14:33:16.000Z</time>
</trkpt>
<trkpt lat="28.177880" lon="-17.314978">
<ele>228.931200</ele>
<time>2009-06-07T14:33:29.000Z</time>
</trkpt>
<trkpt lat="28.177809" lon="-17.314783">
<ele>227.008500</ele>
<time>2009-06-07T14:33:44.000Z</time>
</trkpt>
<trkpt lat="28.177620" lon="-17.314764">
<ele>227.008500</ele>
<time>2009-06-07T14:33:57.000Z</time>
</trkpt>
<trkpt lat="28.177600" lon="-17.314814">
<ele>227.489100</ele>
<time>2009-06-07T14:34:01.000Z</time>
</trkpt>
<trkpt lat="28.177589" lon="-17.314957">
<ele>225.566500</ele>
<time>2009-06-07T14:34:14.000Z</time>
</trkpt>
<trkpt lat="28.177577" lon="-17.315085">
<ele>224.124500</ele>
<time>2009-06-07T14:34:23.000Z</time>
</trkpt>
<trkpt lat="28.177579" lon="-17.315158">
<ele>223.163200</ele>
<time>2009-06-07T14:34:29.000Z</time>
</trkpt>
<trkpt lat="28.177569" lon="-17.315319">
<ele>221.721200</ele>
<time>2009-06-07T14:34:43.000Z</time>
</trkpt>
<trkpt lat="28.177622" lon="-17.315494">
<ele>220.279200</ele>
<time>2009-06-07T14:34:56.000Z</time>
</trkpt>
<trkpt lat="28.177644" lon="-17.315716">
<ele>218.356600</ele>
<time>2009-06-07T14:35:10.000Z</time>
</trkpt>
<trkpt lat="28.177569" lon="-17.315947">
<ele>215.953200</ele>
<time>2009-06-07T14:35:25.000Z</time>
</trkpt>
<trkpt lat="28.177540" lon="-17.316035">
<ele>215.472700</ele>
<time>2009-06-07T14:35:32.000Z</time>
</trkpt>
<trkpt lat="28.177461" lon="-17.316174">
<ele>213.550000</ele>
<time>2009-06-07T14:35:46.000Z</time>
</trkpt>
<trkpt lat="28.177420" lon="-17.316359">
<ele>212.108000</ele>
<time>2009-06-07T14:35:59.000Z</time>
</trkpt>
<trkpt lat="28.177306" lon="-17.316517">
<ele>210.666000</ele>
<time>2009-06-07T14:36:12.000Z</time>
</trkpt>
<trkpt lat="28.177296" lon="-17.316528">
<ele>210.666000</ele>
<time>2009-06-07T14:36:13.000Z</time>
</trkpt>
<trkpt lat="28.177178" lon="-17.316625">
<ele>209.704800</ele>
<time>2009-06-07T14:36:25.000Z</time>
</trkpt>
<trkpt lat="28.177133" lon="-17.316715">
<ele>208.743400</ele>
<time>2009-06-07T14:36:33.000Z</time>
</trkpt>
<trkpt lat="28.177059" lon="-17.316923">
<ele>206.820700</ele>
<time>2009-06-07T14:36:49.000Z</time>
</trkpt>
<trkpt lat="28.176992" lon="-17.317077">
<ele>205.378800</ele>
<time>2009-06-07T14:37:03.000Z</time>
</trkpt>
<trkpt lat="28.176861" lon="-17.317237">
<ele>203.936900</ele>
<time>2009-06-07T14:37:19.000Z</time>
</trkpt>
<trkpt lat="28.176685" lon="-17.317366">
<ele>202.014300</ele>
<time>2009-06-07T14:37:35.000Z</time>
</trkpt>
<trkpt lat="28.176509" lon="-17.317488">
<ele>200.572300</ele>
<time>2009-06-07T14:37:50.000Z</time>
</trkpt>
<trkpt lat="28.176399" lon="-17.317534">
<ele>199.130100</ele>
<time>2009-06-07T14:38:02.000Z</time>
</trkpt>
<trkpt lat="28.176391" lon="-17.317532">
<ele>198.649500</ele>
<time>2009-06-07T14:38:03.000Z</time>
</trkpt>
<trkpt lat="28.176337" lon="-17.317572">
<ele>198.649500</ele>
<time>2009-06-07T14:38:08.000Z</time>
</trkpt>
<trkpt lat="28.176221" lon="-17.317602">
<ele>197.207500</ele>
<time>2009-06-07T14:38:24.000Z</time>
</trkpt>
<trkpt lat="28.176126" lon="-17.317602">
<ele>195.284900</ele>
<time>2009-06-07T14:38:43.000Z</time>
</trkpt>
<trkpt lat="28.176078" lon="-17.317597">
<ele>194.323700</ele>
<time>2009-06-07T14:38:47.000Z</time>
</trkpt>
<trkpt lat="28.175885" lon="-17.317561">
<ele>192.401100</ele>
<time>2009-06-07T14:39:04.000Z</time>
</trkpt>
<trkpt lat="28.175768" lon="-17.317445">
<ele>191.439600</ele>
<time>2009-06-07T14:39:19.000Z</time>
</trkpt>
<trkpt lat="28.175748" lon="-17.317432">
<ele>190.959000</ele>
<time>2009-06-07T14:39:21.000Z</time>
</trkpt>
<trkpt lat="28.175720" lon="-17.317373">
<ele>191.920300</ele>
<time>2009-06-07T14:39:27.000Z</time>
</trkpt>
<trkpt lat="28.175636" lon="-17.317096">
<ele>193.362300</ele>
<time>2009-06-07T14:39:46.000Z</time>
</trkpt>
<trkpt lat="28.175568" lon="-17.316982">
<ele>193.843000</ele>
<time>2009-06-07T14:39:57.000Z</time>
</trkpt>
<trkpt lat="28.175532" lon="-17.316965">
<ele>194.323700</ele>
<time>2009-06-07T14:40:00.000Z</time>
</trkpt>
<trkpt lat="28.175493" lon="-17.316877">
<ele>194.804300</ele>
<time>2009-06-07T14:40:16.000Z</time>
</trkpt>
<trkpt lat="28.175492" lon="-17.316560">
<ele>193.843000</ele>
<time>2009-06-07T14:40:38.000Z</time>
</trkpt>
<trkpt lat="28.175445" lon="-17.316297">
<ele>192.401100</ele>
<time>2009-06-07T14:41:00.000Z</time>
</trkpt>
<trkpt lat="28.175409" lon="-17.316299">
<ele>192.881700</ele>
<time>2009-06-07T14:41:03.000Z</time>
</trkpt>
<trkpt lat="28.175344" lon="-17.316402">
<ele>194.323700</ele>
<time>2009-06-07T14:41:15.000Z</time>
</trkpt>
<trkpt lat="28.175273" lon="-17.316484">
<ele>195.765600</ele>
<time>2009-06-07T14:41:24.000Z</time>
</trkpt>
<trkpt lat="28.175239" lon="-17.316534">
<ele>196.726900</ele>
<time>2009-06-07T14:41:28.000Z</time>
</trkpt>
<trkpt lat="28.175142" lon="-17.316592">
<ele>196.246300</ele>
<time>2009-06-07T14:41:37.000Z</time>
</trkpt>
<trkpt lat="28.175076" lon="-17.316577">
<ele>196.726900</ele>
<time>2009-06-07T14:41:42.000Z</time>
</trkpt>
<trkpt lat="28.175028" lon="-17.316558">
<ele>197.207500</ele>
<time>2009-06-07T14:41:46.000Z</time>
</trkpt>
<trkpt lat="28.174975" lon="-17.316560">
<ele>197.207500</ele>
<time>2009-06-07T14:41:50.000Z</time>
</trkpt>
<trkpt lat="28.174892" lon="-17.316576">
<ele>197.207500</ele>
<time>2009-06-07T14:41:58.000Z</time>
</trkpt>
<trkpt lat="28.174879" lon="-17.316701">
<ele>197.688200</ele>
<time>2009-06-07T14:42:06.000Z</time>
</trkpt>
<trkpt lat="28.174932" lon="-17.316725">
<ele>198.168900</ele>
<time>2009-06-07T14:42:18.000Z</time>
</trkpt>
<trkpt lat="28.174962" lon="-17.316762">
<ele>198.649500</ele>
<time>2009-06-07T14:42:26.000Z</time>
</trkpt>
<trkpt lat="28.175044" lon="-17.316790">
<ele>199.130100</ele>
<time>2009-06-07T14:42:33.000Z</time>
</trkpt>
<trkpt lat="28.175056" lon="-17.316960">
<ele>199.130100</ele>
<time>2009-06-07T14:42:47.000Z</time>
</trkpt>
<trkpt lat="28.175016" lon="-17.317103">
<ele>198.649500</ele>
<time>2009-06-07T14:42:56.000Z</time>
</trkpt>
<trkpt lat="28.175059" lon="-17.317316">
<ele>198.649500</ele>
<time>2009-06-07T14:43:12.000Z</time>
</trkpt>
<trkpt lat="28.175058" lon="-17.317369">
<ele>198.649500</ele>
<time>2009-06-07T14:43:15.000Z</time>
</trkpt>
<trkpt lat="28.175045" lon="-17.317501">
<ele>197.688200</ele>
<time>2009-06-07T14:43:26.000Z</time>
</trkpt>
<trkpt lat="28.175068" lon="-17.317640">
<ele>197.688200</ele>
<time>2009-06-07T14:43:39.000Z</time>
</trkpt>
<trkpt lat="28.175075" lon="-17.317700">
<ele>197.207500</ele>
<time>2009-06-07T14:43:44.000Z</time>
</trkpt>
<trkpt lat="28.175139" lon="-17.317870">
<ele>196.726900</ele>
<time>2009-06-07T14:43:55.000Z</time>
</trkpt>
<trkpt lat="28.175135" lon="-17.317935">
<ele>198.168900</ele>
<time>2009-06-07T14:44:02.000Z</time>
</trkpt>
<trkpt lat="28.175156" lon="-17.318025">
<ele>197.688200</ele>
<time>2009-06-07T14:44:08.000Z</time>
</trkpt>
<trkpt lat="28.175204" lon="-17.318162">
<ele>197.688200</ele>
<time>2009-06-07T14:44:16.000Z</time>
</trkpt>
<trkpt lat="28.175267" lon="-17.318361">
<ele>196.246300</ele>
<time>2009-06-07T14:44:29.000Z</time>
</trkpt>
<trkpt lat="28.175280" lon="-17.318481">
<ele>196.726900</ele>
<time>2009-06-07T14:44:36.000Z</time>
</trkpt>
<trkpt lat="28.175255" lon="-17.318599">
<ele>197.207500</ele>
<time>2009-06-07T14:44:48.000Z</time>
</trkpt>
<trkpt lat="28.175271" lon="-17.318746">
<ele>197.207500</ele>
<time>2009-06-07T14:44:58.000Z</time>
</trkpt>
<trkpt lat="28.175262" lon="-17.318860">
<ele>196.726900</ele>
<time>2009-06-07T14:45:14.000Z</time>
</trkpt>
<trkpt lat="28.175263" lon="-17.318865">
<ele>197.688200</ele>
<time>2009-06-07T14:45:16.000Z</time>
</trkpt>
<trkpt lat="28.175270" lon="-17.318881">
<ele>197.207500</ele>
<time>2009-06-07T14:45:41.000Z</time>
</trkpt>
<trkpt lat="28.175221" lon="-17.318876">
<ele>196.726900</ele>
<time>2009-06-07T14:49:30.000Z</time>
</trkpt>
<trkpt lat="28.175198" lon="-17.318883">
<ele>196.246300</ele>
<time>2009-06-07T14:49:32.000Z</time>
</trkpt>
<trkpt lat="28.175103" lon="-17.318911">
<ele>196.726900</ele>
<time>2009-06-07T14:49:41.000Z</time>
</trkpt>
<trkpt lat="28.175038" lon="-17.318926">
<ele>196.246300</ele>
<time>2009-06-07T14:49:46.000Z</time>
</trkpt>
<trkpt lat="28.174867" lon="-17.318986">
<ele>195.765600</ele>
<time>2009-06-07T14:50:01.000Z</time>
</trkpt>
<trkpt lat="28.174708" lon="-17.319125">
<ele>195.284900</ele>
<time>2009-06-07T14:50:16.000Z</time>
</trkpt>
<trkpt lat="28.174626" lon="-17.319126">
<ele>194.323700</ele>
<time>2009-06-07T14:50:23.000Z</time>
</trkpt>
<trkpt lat="28.174577" lon="-17.319125">
<ele>193.362300</ele>
<time>2009-06-07T14:50:37.000Z</time>
</trkpt>
<trkpt lat="28.174508" lon="-17.319123">
<ele>192.881700</ele>
<time>2009-06-07T14:50:45.000Z</time>
</trkpt>
<trkpt lat="28.174453" lon="-17.319210">
<ele>192.401100</ele>
<time>2009-06-07T14:50:49.000Z</time>
</trkpt>
<trkpt lat="28.174375" lon="-17.319341">
<ele>190.959000</ele>
<time>2009-06-07T14:51:01.000Z</time>
</trkpt>
<trkpt lat="28.174345" lon="-17.319362">
<ele>190.478400</ele>
<time>2009-06-07T14:51:06.000Z</time>
</trkpt>
<trkpt lat="28.174256" lon="-17.319444">
<ele>189.997700</ele>
<time>2009-06-07T14:51:15.000Z</time>
</trkpt>
<trkpt lat="28.174252" lon="-17.319550">
<ele>189.997700</ele>
<time>2009-06-07T14:51:24.000Z</time>
</trkpt>
<trkpt lat="28.174281" lon="-17.319617">
<ele>190.478400</ele>
<time>2009-06-07T14:51:30.000Z</time>
</trkpt>
<trkpt lat="28.174344" lon="-17.319595">
<ele>189.517000</ele>
<time>2009-06-07T14:51:36.000Z</time>
</trkpt>
<trkpt lat="28.174398" lon="-17.319611">
<ele>189.036400</ele>
<time>2009-06-07T14:51:41.000Z</time>
</trkpt>
<trkpt lat="28.174540" lon="-17.319660">
<ele>188.555800</ele>
<time>2009-06-07T14:51:49.000Z</time>
</trkpt>
<trkpt lat="28.174620" lon="-17.319669">
<ele>188.555800</ele>
<time>2009-06-07T14:51:53.000Z</time>
</trkpt>
<trkpt lat="28.174669" lon="-17.319683">
<ele>188.075100</ele>
<time>2009-06-07T14:51:57.000Z</time>
</trkpt>
<trkpt lat="28.174811" lon="-17.319702">
<ele>187.594400</ele>
<time>2009-06-07T14:52:06.000Z</time>
</trkpt>
<trkpt lat="28.174886" lon="-17.319777">
<ele>186.633200</ele>
<time>2009-06-07T14:52:13.000Z</time>
</trkpt>
<trkpt lat="28.174929" lon="-17.319799">
<ele>185.191200</ele>
<time>2009-06-07T14:52:17.000Z</time>
</trkpt>
<trkpt lat="28.174942" lon="-17.319824">
<ele>186.633200</ele>
<time>2009-06-07T14:52:20.000Z</time>
</trkpt>
<trkpt lat="28.174989" lon="-17.319870">
<ele>185.671800</ele>
<time>2009-06-07T14:52:25.000Z</time>
</trkpt>
<trkpt lat="28.175053" lon="-17.319937">
<ele>184.710600</ele>
<time>2009-06-07T14:52:33.000Z</time>
</trkpt>
<trkpt lat="28.175121" lon="-17.320032">
<ele>184.229900</ele>
<time>2009-06-07T14:52:41.000Z</time>
</trkpt>
<trkpt lat="28.175141" lon="-17.320053">
<ele>184.229900</ele>
<time>2009-06-07T14:52:43.000Z</time>
</trkpt>
<trkpt lat="28.175137" lon="-17.320123">
<ele>183.749000</ele>
<time>2009-06-07T14:52:47.000Z</time>
</trkpt>
<trkpt lat="28.175167" lon="-17.320237">
<ele>182.787800</ele>
<time>2009-06-07T14:52:56.000Z</time>
</trkpt>
<trkpt lat="28.175163" lon="-17.320264">
<ele>182.307100</ele>
<time>2009-06-07T14:52:58.000Z</time>
</trkpt>
<trkpt lat="28.175172" lon="-17.320291">
<ele>181.826400</ele>
<time>2009-06-07T14:53:02.000Z</time>
</trkpt>
<trkpt lat="28.175176" lon="-17.320370">
<ele>181.345800</ele>
<time>2009-06-07T14:53:06.000Z</time>
</trkpt>
<trkpt lat="28.175167" lon="-17.320447">
<ele>180.865200</ele>
<time>2009-06-07T14:53:10.000Z</time>
</trkpt>
<trkpt lat="28.175181" lon="-17.320564">
<ele>179.423200</ele>
<time>2009-06-07T14:53:18.000Z</time>
</trkpt>
<trkpt lat="28.175196" lon="-17.320657">
<ele>177.020000</ele>
<time>2009-06-07T14:53:30.000Z</time>
</trkpt>
<trkpt lat="28.175211" lon="-17.320736">
<ele>176.058600</ele>
<time>2009-06-07T14:53:37.000Z</time>
</trkpt>
<trkpt lat="28.175311" lon="-17.320947">
<ele>174.616600</ele>
<time>2009-06-07T14:53:48.000Z</time>
</trkpt>
<trkpt lat="28.175313" lon="-17.320982">
<ele>174.616600</ele>
<time>2009-06-07T14:53:51.000Z</time>
</trkpt>
<trkpt lat="28.175309" lon="-17.321027">
<ele>174.135900</ele>
<time>2009-06-07T14:53:55.000Z</time>
</trkpt>
<trkpt lat="28.175313" lon="-17.321112">
<ele>173.174700</ele>
<time>2009-06-07T14:54:02.000Z</time>
</trkpt>
<trkpt lat="28.175277" lon="-17.321165">
<ele>172.694000</ele>
<time>2009-06-07T14:54:05.000Z</time>
</trkpt>
<trkpt lat="28.175283" lon="-17.321204">
<ele>172.213300</ele>
<time>2009-06-07T14:54:09.000Z</time>
</trkpt>
<trkpt lat="28.175279" lon="-17.321347">
<ele>171.252100</ele>
<time>2009-06-07T14:54:21.000Z</time>
</trkpt>
<trkpt lat="28.175295" lon="-17.321365">
<ele>171.252100</ele>
<time>2009-06-07T14:54:23.000Z</time>
</trkpt>
<trkpt lat="28.175331" lon="-17.321431">
<ele>170.290600</ele>
<time>2009-06-07T14:54:28.000Z</time>
</trkpt>
<trkpt lat="28.175339" lon="-17.321487">
<ele>170.290600</ele>
<time>2009-06-07T14:54:31.000Z</time>
</trkpt>
<trkpt lat="28.175370" lon="-17.321538">
<ele>169.810100</ele>
<time>2009-06-07T14:54:35.000Z</time>
</trkpt>
<trkpt lat="28.175345" lon="-17.321575">
<ele>169.329500</ele>
<time>2009-06-07T14:54:37.000Z</time>
</trkpt>
<trkpt lat="28.175383" lon="-17.321699">
<ele>169.810100</ele>
<time>2009-06-07T14:54:45.000Z</time>
</trkpt>
<trkpt lat="28.175410" lon="-17.321770">
<ele>169.329500</ele>
<time>2009-06-07T14:54:49.000Z</time>
</trkpt>
<trkpt lat="28.175470" lon="-17.321953">
<ele>166.445300</ele>
<time>2009-06-07T14:55:04.000Z</time>
</trkpt>
<trkpt lat="28.175398" lon="-17.322086">
<ele>165.484100</ele>
<time>2009-06-07T14:55:17.000Z</time>
</trkpt>
<trkpt lat="28.175427" lon="-17.322133">
<ele>164.522700</ele>
<time>2009-06-07T14:55:40.000Z</time>
</trkpt>
<trkpt lat="28.175438" lon="-17.322080">
<ele>164.522700</ele>
<time>2009-06-07T14:56:56.000Z</time>
</trkpt>
<trkpt lat="28.175368" lon="-17.322280">
<ele>162.600100</ele>
<time>2009-06-07T14:58:38.000Z</time>
</trkpt>
<trkpt lat="28.175355" lon="-17.322285">
<ele>162.600100</ele>
<time>2009-06-07T14:59:18.000Z</time>
</trkpt>
<trkpt lat="28.175353" lon="-17.322318">
<ele>162.119500</ele>
<time>2009-06-07T15:00:09.000Z</time>
</trkpt>
<trkpt lat="28.175319" lon="-17.322541">
<ele>160.196900</ele>
<time>2009-06-07T15:00:24.000Z</time>
</trkpt>
<trkpt lat="28.175250" lon="-17.322572">
<ele>159.716200</ele>
<time>2009-06-07T15:00:37.000Z</time>
</trkpt>
<trkpt lat="28.175154" lon="-17.322788">
<ele>158.754800</ele>
<time>2009-06-07T15:00:53.000Z</time>
</trkpt>
<trkpt lat="28.175128" lon="-17.322837">
<ele>158.274200</ele>
<time>2009-06-07T15:00:57.000Z</time>
</trkpt>
<trkpt lat="28.175112" lon="-17.322893">
<ele>157.793600</ele>
<time>2009-06-07T15:01:02.000Z</time>
</trkpt>
<trkpt lat="28.175061" lon="-17.323095">
<ele>157.793600</ele>
<time>2009-06-07T15:01:17.000Z</time>
</trkpt>
<trkpt lat="28.175028" lon="-17.323091">
<ele>157.793600</ele>
<time>2009-06-07T15:01:22.000Z</time>
</trkpt>
<trkpt lat="28.174980" lon="-17.323090">
<ele>158.274200</ele>
<time>2009-06-07T15:01:33.000Z</time>
</trkpt>
<trkpt lat="28.174939" lon="-17.323108">
<ele>157.793600</ele>
<time>2009-06-07T15:01:38.000Z</time>
</trkpt>
<trkpt lat="28.174922" lon="-17.323137">
<ele>158.274200</ele>
<time>2009-06-07T15:01:41.000Z</time>
</trkpt>
<trkpt lat="28.174886" lon="-17.323152">
<ele>158.274200</ele>
<time>2009-06-07T15:01:45.000Z</time>
</trkpt>
<trkpt lat="28.174843" lon="-17.323176">
<ele>158.274200</ele>
<time>2009-06-07T15:02:09.000Z</time>
</trkpt>
<trkpt lat="28.174821" lon="-17.323183">
<ele>158.274200</ele>
<time>2009-06-07T15:02:11.000Z</time>
</trkpt>
<trkpt lat="28.174774" lon="-17.323186">
<ele>158.754800</ele>
<time>2009-06-07T15:02:15.000Z</time>
</trkpt>
<trkpt lat="28.174609" lon="-17.323342">
<ele>159.716200</ele>
<time>2009-06-07T15:02:31.000Z</time>
</trkpt>
<trkpt lat="28.174586" lon="-17.323369">
<ele>160.196900</ele>
<time>2009-06-07T15:02:35.000Z</time>
</trkpt>
<trkpt lat="28.174564" lon="-17.323374">
<ele>160.196900</ele>
<time>2009-06-07T15:02:37.000Z</time>
</trkpt>
<trkpt lat="28.174424" lon="-17.323504">
<ele>159.716200</ele>
<time>2009-06-07T15:02:51.000Z</time>
</trkpt>
<trkpt lat="28.174394" lon="-17.323524">
<ele>159.716200</ele>
<time>2009-06-07T15:02:55.000Z</time>
</trkpt>
<trkpt lat="28.174320" lon="-17.323508">
<ele>159.235500</ele>
<time>2009-06-07T15:03:02.000Z</time>
</trkpt>
<trkpt lat="28.174232" lon="-17.323444">
<ele>159.235500</ele>
<time>2009-06-07T15:03:11.000Z</time>
</trkpt>
<trkpt lat="28.174202" lon="-17.323438">
<ele>158.754800</ele>
<time>2009-06-07T15:03:14.000Z</time>
</trkpt>
<trkpt lat="28.174125" lon="-17.323376">
<ele>159.235500</ele>
<time>2009-06-07T15:03:21.000Z</time>
</trkpt>
<trkpt lat="28.173999" lon="-17.323276">
<ele>160.196900</ele>
<time>2009-06-07T15:03:33.000Z</time>
</trkpt>
<trkpt lat="28.173951" lon="-17.323253">
<ele>160.677500</ele>
<time>2009-06-07T15:03:37.000Z</time>
</trkpt>
<trkpt lat="28.173913" lon="-17.323250">
<ele>160.677500</ele>
<time>2009-06-07T15:03:40.000Z</time>
</trkpt>
<trkpt lat="28.173858" lon="-17.323244">
<ele>160.677500</ele>
<time>2009-06-07T15:03:46.000Z</time>
</trkpt>
<trkpt lat="28.173823" lon="-17.323307">
<ele>161.158200</ele>
<time>2009-06-07T15:03:51.000Z</time>
</trkpt>
<trkpt lat="28.173812" lon="-17.323384">
<ele>160.677500</ele>
<time>2009-06-07T15:03:56.000Z</time>
</trkpt>
<trkpt lat="28.173794" lon="-17.323409">
<ele>161.158200</ele>
<time>2009-06-07T15:03:59.000Z</time>
</trkpt>
<trkpt lat="28.173774" lon="-17.323490">
<ele>162.119500</ele>
<time>2009-06-07T15:04:03.000Z</time>
</trkpt>
<trkpt lat="28.173715" lon="-17.323614">
<ele>163.080800</ele>
<time>2009-06-07T15:04:14.000Z</time>
</trkpt>
<trkpt lat="28.173688" lon="-17.323781">
<ele>163.561500</ele>
<time>2009-06-07T15:04:25.000Z</time>
</trkpt>
<trkpt lat="28.173688" lon="-17.323799">
<ele>163.561500</ele>
<time>2009-06-07T15:04:26.000Z</time>
</trkpt>
<trkpt lat="28.173653" lon="-17.323969">
<ele>164.522700</ele>
<time>2009-06-07T15:04:40.000Z</time>
</trkpt>
<trkpt lat="28.173627" lon="-17.324012">
<ele>165.003400</ele>
<time>2009-06-07T15:04:44.000Z</time>
</trkpt>
<trkpt lat="28.173547" lon="-17.324167">
<ele>165.003400</ele>
<time>2009-06-07T15:04:58.000Z</time>
</trkpt>
<trkpt lat="28.173533" lon="-17.324254">
<ele>165.484100</ele>
<time>2009-06-07T15:05:03.000Z</time>
</trkpt>
<trkpt lat="28.173429" lon="-17.324430">
<ele>166.445300</ele>
<time>2009-06-07T15:05:17.000Z</time>
</trkpt>
<trkpt lat="28.173333" lon="-17.324546">
<ele>166.445300</ele>
<time>2009-06-07T15:05:30.000Z</time>
</trkpt>
<trkpt lat="28.173325" lon="-17.324553">
<ele>166.445300</ele>
<time>2009-06-07T15:05:31.000Z</time>
</trkpt>
<trkpt lat="28.173264" lon="-17.324709">
<ele>167.406700</ele>
<time>2009-06-07T15:05:44.000Z</time>
</trkpt>
<trkpt lat="28.173200" lon="-17.324836">
<ele>167.406700</ele>
<time>2009-06-07T15:05:55.000Z</time>
</trkpt>
<trkpt lat="28.173100" lon="-17.324935">
<ele>167.887300</ele>
<time>2009-06-07T15:06:08.000Z</time>
</trkpt>
<trkpt lat="28.173025" lon="-17.325035">
<ele>169.329500</ele>
<time>2009-06-07T15:06:18.000Z</time>
</trkpt>
<trkpt lat="28.172983" lon="-17.325093">
<ele>169.329500</ele>
<time>2009-06-07T15:06:23.000Z</time>
</trkpt>
<trkpt lat="28.172972" lon="-17.325119">
<ele>169.810100</ele>
<time>2009-06-07T15:06:25.000Z</time>
</trkpt>
<trkpt lat="28.172883" lon="-17.325194">
<ele>170.290600</ele>
<time>2009-06-07T15:06:35.000Z</time>
</trkpt>
<trkpt lat="28.172860" lon="-17.325224">
<ele>170.771400</ele>
<time>2009-06-07T15:06:55.000Z</time>
</trkpt>
<trkpt lat="28.172735" lon="-17.325230">
<ele>172.213300</ele>
<time>2009-06-07T15:07:35.000Z</time>
</trkpt>
<trkpt lat="28.172623" lon="-17.325383">
<ele>174.135900</ele>
<time>2009-06-07T15:07:49.000Z</time>
</trkpt>
<trkpt lat="28.172550" lon="-17.325519">
<ele>175.097300</ele>
<time>2009-06-07T15:08:01.000Z</time>
</trkpt>
<trkpt lat="28.172469" lon="-17.325642">
<ele>177.020000</ele>
<time>2009-06-07T15:08:15.000Z</time>
</trkpt>
<trkpt lat="28.172469" lon="-17.325699">
<ele>174.616600</ele>
<time>2009-06-07T15:08:19.000Z</time>
</trkpt>
<trkpt lat="28.172466" lon="-17.325718">
<ele>175.097300</ele>
<time>2009-06-07T15:08:37.000Z</time>
</trkpt>
<trkpt lat="28.172438" lon="-17.325769">
<ele>174.616600</ele>
<time>2009-06-07T15:08:42.000Z</time>
</trkpt>
<trkpt lat="28.172426" lon="-17.325823">
<ele>173.655300</ele>
<time>2009-06-07T15:08:46.000Z</time>
</trkpt>
<trkpt lat="28.172390" lon="-17.325919">
<ele>172.694000</ele>
<time>2009-06-07T15:08:55.000Z</time>
</trkpt>
<trkpt lat="28.172351" lon="-17.326069">
<ele>173.174700</ele>
<time>2009-06-07T15:09:08.000Z</time>
</trkpt>
<trkpt lat="28.172335" lon="-17.326109">
<ele>172.213300</ele>
<time>2009-06-07T15:09:25.000Z</time>
</trkpt>
<trkpt lat="28.172298" lon="-17.326066">
<ele>172.213300</ele>
<time>2009-06-07T15:09:47.000Z</time>
</trkpt>
<trkpt lat="28.172195" lon="-17.326011">
<ele>171.252100</ele>
<time>2009-06-07T15:10:04.000Z</time>
</trkpt>
<trkpt lat="28.172120" lon="-17.325912">
<ele>169.810100</ele>
<time>2009-06-07T15:10:17.000Z</time>
</trkpt>
<trkpt lat="28.172120" lon="-17.325892">
<ele>169.329500</ele>
<time>2009-06-07T15:10:19.000Z</time>
</trkpt>
<trkpt lat="28.172103" lon="-17.325802">
<ele>169.329500</ele>
<time>2009-06-07T15:10:27.000Z</time>
</trkpt>
<trkpt lat="28.172124" lon="-17.325607">
<ele>168.848800</ele>
<time>2009-06-07T15:10:42.000Z</time>
</trkpt>
<trkpt lat="28.172077" lon="-17.325435">
<ele>167.406700</ele>
<time>2009-06-07T15:10:56.000Z</time>
</trkpt>
<trkpt lat="28.172016" lon="-17.325264">
<ele>166.926000</ele>
<time>2009-06-07T15:11:09.000Z</time>
</trkpt>
<trkpt lat="28.171945" lon="-17.325142">
<ele>166.445300</ele>
<time>2009-06-07T15:11:21.000Z</time>
</trkpt>
<trkpt lat="28.171918" lon="-17.325117">
<ele>165.484100</ele>
<time>2009-06-07T15:11:24.000Z</time>
</trkpt>
<trkpt lat="28.171830" lon="-17.324950">
<ele>164.042100</ele>
<time>2009-06-07T15:11:38.000Z</time>
</trkpt>
<trkpt lat="28.171712" lon="-17.324837">
<ele>162.600100</ele>
<time>2009-06-07T15:11:54.000Z</time>
</trkpt>
<trkpt lat="28.171577" lon="-17.324637">
<ele>161.158200</ele>
<time>2009-06-07T15:12:12.000Z</time>
</trkpt>
<trkpt lat="28.171491" lon="-17.324461">
<ele>160.196900</ele>
<time>2009-06-07T15:12:25.000Z</time>
</trkpt>
<trkpt lat="28.171449" lon="-17.324426">
<ele>160.196900</ele>
<time>2009-06-07T15:12:30.000Z</time>
</trkpt>
<trkpt lat="28.171362" lon="-17.324298">
<ele>158.754800</ele>
<time>2009-06-07T15:12:45.000Z</time>
</trkpt>
<trkpt lat="28.171376" lon="-17.324127">
<ele>156.351600</ele>
<time>2009-06-07T15:13:08.000Z</time>
</trkpt>
<trkpt lat="28.171231" lon="-17.324081">
<ele>156.832200</ele>
<time>2009-06-07T15:13:23.000Z</time>
</trkpt>
<trkpt lat="28.171129" lon="-17.324241">
<ele>157.312900</ele>
<time>2009-06-07T15:13:38.000Z</time>
</trkpt>
<trkpt lat="28.171122" lon="-17.324264">
<ele>157.312900</ele>
<time>2009-06-07T15:13:40.000Z</time>
</trkpt>
<trkpt lat="28.171095" lon="-17.324413">
<ele>158.754800</ele>
<time>2009-06-07T15:13:59.000Z</time>
</trkpt>
<trkpt lat="28.171091" lon="-17.324440">
<ele>162.119500</ele>
<time>2009-06-07T15:14:18.000Z</time>
</trkpt>
<trkpt lat="28.171092" lon="-17.324440">
<ele>161.638900</ele>
<time>2009-06-07T15:14:25.000Z</time>
</trkpt>
<trkpt lat="28.171084" lon="-17.324445">
<ele>158.274200</ele>
<time>2009-06-07T15:14:56.000Z</time>
</trkpt>
<trkpt lat="28.171070" lon="-17.324474">
<ele>158.274200</ele>
<time>2009-06-07T15:14:57.000Z</time>
</trkpt>
<trkpt lat="28.171015" lon="-17.324564">
<ele>159.235500</ele>
<time>2009-06-07T15:15:04.000Z</time>
</trkpt>
<trkpt lat="28.171037" lon="-17.324700">
<ele>161.158200</ele>
<time>2009-06-07T15:15:17.000Z</time>
</trkpt>
<trkpt lat="28.171038" lon="-17.324913">
<ele>162.600100</ele>
<time>2009-06-07T15:15:31.000Z</time>
</trkpt>
<trkpt lat="28.171032" lon="-17.324927">
<ele>162.600100</ele>
<time>2009-06-07T15:15:33.000Z</time>
</trkpt>
<trkpt lat="28.171023" lon="-17.325042">
<ele>163.561500</ele>
<time>2009-06-07T15:15:43.000Z</time>
</trkpt>
<trkpt lat="28.171017" lon="-17.325119">
<ele>164.042100</ele>
<time>2009-06-07T15:15:51.000Z</time>
</trkpt>
<trkpt lat="28.171017" lon="-17.325222">
<ele>164.522700</ele>
<time>2009-06-07T15:15:58.000Z</time>
</trkpt>
<trkpt lat="28.170998" lon="-17.325345">
<ele>163.561500</ele>
<time>2009-06-07T15:16:07.000Z</time>
</trkpt>
<trkpt lat="28.170979" lon="-17.325428">
<ele>164.042100</ele>
<time>2009-06-07T15:16:14.000Z</time>
</trkpt>
<trkpt lat="28.170964" lon="-17.325625">
<ele>163.561500</ele>
<time>2009-06-07T15:16:27.000Z</time>
</trkpt>
<trkpt lat="28.170962" lon="-17.325625">
<ele>164.042100</ele>
<time>2009-06-07T15:16:28.000Z</time>
</trkpt>
<trkpt lat="28.170922" lon="-17.325758">
<ele>165.484100</ele>
<time>2009-06-07T15:16:41.000Z</time>
</trkpt>
<trkpt lat="28.170883" lon="-17.325978">
<ele>166.926000</ele>
<time>2009-06-07T15:17:00.000Z</time>
</trkpt>
<trkpt lat="28.170852" lon="-17.326077">
<ele>166.926000</ele>
<time>2009-06-07T15:17:08.000Z</time>
</trkpt>
<trkpt lat="28.170802" lon="-17.326237">
<ele>168.368000</ele>
<time>2009-06-07T15:17:20.000Z</time>
</trkpt>
<trkpt lat="28.170808" lon="-17.326276">
<ele>168.368000</ele>
<time>2009-06-07T15:17:23.000Z</time>
</trkpt>
<trkpt lat="28.170781" lon="-17.326415">
<ele>169.329500</ele>
<time>2009-06-07T15:17:36.000Z</time>
</trkpt>
<trkpt lat="28.170791" lon="-17.326426">
<ele>169.329500</ele>
<time>2009-06-07T15:17:37.000Z</time>
</trkpt>
<trkpt lat="28.170786" lon="-17.326484">
<ele>169.810100</ele>
<time>2009-06-07T15:17:42.000Z</time>
</trkpt>
<trkpt lat="28.170767" lon="-17.326619">
<ele>170.290600</ele>
<time>2009-06-07T15:17:53.000Z</time>
</trkpt>
<trkpt lat="28.170738" lon="-17.326675">
<ele>169.810100</ele>
<time>2009-06-07T15:17:57.000Z</time>
</trkpt>
<trkpt lat="28.170741" lon="-17.326692">
<ele>170.771400</ele>
<time>2009-06-07T15:18:01.000Z</time>
</trkpt>
<trkpt lat="28.170700" lon="-17.326790">
<ele>171.732700</ele>
<time>2009-06-07T15:18:08.000Z</time>
</trkpt>
<trkpt lat="28.170678" lon="-17.326926">
<ele>172.694000</ele>
<time>2009-06-07T15:18:19.000Z</time>
</trkpt>
<trkpt lat="28.170660" lon="-17.326969">
<ele>173.174700</ele>
<time>2009-06-07T15:18:23.000Z</time>
</trkpt>
<trkpt lat="28.170612" lon="-17.327054">
<ele>174.135900</ele>
<time>2009-06-07T15:18:31.000Z</time>
</trkpt>
<trkpt lat="28.170608" lon="-17.327068">
<ele>174.616600</ele>
<time>2009-06-07T15:18:33.000Z</time>
</trkpt>
<trkpt lat="28.170616" lon="-17.327236">
<ele>177.020000</ele>
<time>2009-06-07T15:18:47.000Z</time>
</trkpt>
<trkpt lat="28.170611" lon="-17.327259">
<ele>177.020000</ele>
<time>2009-06-07T15:18:49.000Z</time>
</trkpt>
<trkpt lat="28.170551" lon="-17.327249">
<ele>177.500600</ele>
<time>2009-06-07T15:19:04.000Z</time>
</trkpt>
<trkpt lat="28.170523" lon="-17.327261">
<ele>177.020000</ele>
<time>2009-06-07T15:19:07.000Z</time>
</trkpt>
<trkpt lat="28.170432" lon="-17.327282">
<ele>175.097300</ele>
<time>2009-06-07T15:19:20.000Z</time>
</trkpt>
<trkpt lat="28.170377" lon="-17.327338">
<ele>174.135900</ele>
<time>2009-06-07T15:19:26.000Z</time>
</trkpt>
<trkpt lat="28.170304" lon="-17.327544">
<ele>173.655300</ele>
<time>2009-06-07T15:19:41.000Z</time>
</trkpt>
<trkpt lat="28.170271" lon="-17.327672">
<ele>172.213300</ele>
<time>2009-06-07T15:19:52.000Z</time>
</trkpt>
<trkpt lat="28.170267" lon="-17.327763">
<ele>171.252100</ele>
<time>2009-06-07T15:19:58.000Z</time>
</trkpt>
<trkpt lat="28.170198" lon="-17.327932">
<ele>172.213300</ele>
<time>2009-06-07T15:20:11.000Z</time>
</trkpt>
<trkpt lat="28.170179" lon="-17.327963">
<ele>170.771400</ele>
<time>2009-06-07T15:20:14.000Z</time>
</trkpt>
<trkpt lat="28.170141" lon="-17.328018">
<ele>171.732700</ele>
<time>2009-06-07T15:20:20.000Z</time>
</trkpt>
<trkpt lat="28.170139" lon="-17.328120">
<ele>171.732700</ele>
<time>2009-06-07T15:20:37.000Z</time>
</trkpt>
<trkpt lat="28.170099" lon="-17.328184">
<ele>170.771400</ele>
<time>2009-06-07T15:20:52.000Z</time>
</trkpt>
<trkpt lat="28.170096" lon="-17.328289">
<ele>170.290600</ele>
<time>2009-06-07T15:20:59.000Z</time>
</trkpt>
<trkpt lat="28.170054" lon="-17.328499">
<ele>169.810100</ele>
<time>2009-06-07T15:21:14.000Z</time>
</trkpt>
<trkpt lat="28.170033" lon="-17.328652">
<ele>169.810100</ele>
<time>2009-06-07T15:21:28.000Z</time>
</trkpt>
<trkpt lat="28.170017" lon="-17.328763">
<ele>169.810100</ele>
<time>2009-06-07T15:21:36.000Z</time>
</trkpt>
<trkpt lat="28.169996" lon="-17.328849">
<ele>169.329500</ele>
<time>2009-06-07T15:21:42.000Z</time>
</trkpt>
<trkpt lat="28.170001" lon="-17.328878">
<ele>169.329500</ele>
<time>2009-06-07T15:21:44.000Z</time>
</trkpt>
<trkpt lat="28.169933" lon="-17.329052">
<ele>168.368000</ele>
<time>2009-06-07T15:21:58.000Z</time>
</trkpt>
<trkpt lat="28.169860" lon="-17.329228">
<ele>167.887300</ele>
<time>2009-06-07T15:22:12.000Z</time>
</trkpt>
<trkpt lat="28.169811" lon="-17.329435">
<ele>168.368000</ele>
<time>2009-06-07T15:22:27.000Z</time>
</trkpt>
<trkpt lat="28.169776" lon="-17.329559">
<ele>165.964700</ele>
<time>2009-06-07T15:22:37.000Z</time>
</trkpt>
<trkpt lat="28.169706" lon="-17.329676">
<ele>165.964700</ele>
<time>2009-06-07T15:22:49.000Z</time>
</trkpt>
<trkpt lat="28.169611" lon="-17.329747">
<ele>165.003400</ele>
<time>2009-06-07T15:23:01.000Z</time>
</trkpt>
<trkpt lat="28.169517" lon="-17.329858">
<ele>164.522700</ele>
<time>2009-06-07T15:23:12.000Z</time>
</trkpt>
<trkpt lat="28.169475" lon="-17.329838">
<ele>164.522700</ele>
<time>2009-06-07T15:23:25.000Z</time>
</trkpt>
<trkpt lat="28.169431" lon="-17.329802">
<ele>165.003400</ele>
<time>2009-06-07T15:23:35.000Z</time>
</trkpt>
<trkpt lat="28.169322" lon="-17.329639">
<ele>166.445300</ele>
<time>2009-06-07T15:23:50.000Z</time>
</trkpt>
<trkpt lat="28.169314" lon="-17.329608">
<ele>166.926000</ele>
<time>2009-06-07T15:23:54.000Z</time>
</trkpt>
<trkpt lat="28.169312" lon="-17.329599">
<ele>167.887300</ele>
<time>2009-06-07T15:23:56.000Z</time>
</trkpt>
<trkpt lat="28.169298" lon="-17.329525">
<ele>168.848800</ele>
<time>2009-06-07T15:24:09.000Z</time>
</trkpt>
<trkpt lat="28.169275" lon="-17.329471">
<ele>169.329500</ele>
<time>2009-06-07T15:24:30.000Z</time>
</trkpt>
<trkpt lat="28.169146" lon="-17.329440">
<ele>171.252100</ele>
<time>2009-06-07T15:24:49.000Z</time>
</trkpt>
<trkpt lat="28.169086" lon="-17.329431">
<ele>171.252100</ele>
<time>2009-06-07T15:24:56.000Z</time>
</trkpt>
<trkpt lat="28.168935" lon="-17.329481">
<ele>174.135900</ele>
<time>2009-06-07T15:25:13.000Z</time>
</trkpt>
<trkpt lat="28.168752" lon="-17.329556">
<ele>175.577900</ele>
<time>2009-06-07T15:25:33.000Z</time>
</trkpt>
<trkpt lat="28.168672" lon="-17.329634">
<ele>177.500600</ele>
<time>2009-06-07T15:25:44.000Z</time>
</trkpt>
<trkpt lat="28.168631" lon="-17.329639">
<ele>177.500600</ele>
<time>2009-06-07T15:25:48.000Z</time>
</trkpt>
<trkpt lat="28.168602" lon="-17.329634">
<ele>179.423200</ele>
<time>2009-06-07T15:25:52.000Z</time>
</trkpt>
<trkpt lat="28.168553" lon="-17.329582">
<ele>179.423200</ele>
<time>2009-06-07T15:26:08.000Z</time>
</trkpt>
<trkpt lat="28.168596" lon="-17.329567">
<ele>179.423200</ele>
<time>2009-06-07T15:26:14.000Z</time>
</trkpt>
<trkpt lat="28.168696" lon="-17.329513">
<ele>182.307100</ele>
<time>2009-06-07T15:26:30.000Z</time>
</trkpt>
<trkpt lat="28.168772" lon="-17.329363">
<ele>185.191200</ele>
<time>2009-06-07T15:26:51.000Z</time>
</trkpt>
<trkpt lat="28.168888" lon="-17.329248">
<ele>186.633200</ele>
<time>2009-06-07T15:27:09.000Z</time>
</trkpt>
<trkpt lat="28.168893" lon="-17.329244">
<ele>186.633200</ele>
<time>2009-06-07T15:27:24.000Z</time>
</trkpt>
<trkpt lat="28.169018" lon="-17.329063">
<ele>189.517000</ele>
<time>2009-06-07T15:27:46.000Z</time>
</trkpt>
<trkpt lat="28.169140" lon="-17.328885">
<ele>191.920300</ele>
<time>2009-06-07T15:28:04.000Z</time>
</trkpt>
<trkpt lat="28.169193" lon="-17.328742">
<ele>194.804300</ele>
<time>2009-06-07T15:28:18.000Z</time>
</trkpt>
<trkpt lat="28.169170" lon="-17.328511">
<ele>196.726900</ele>
<time>2009-06-07T15:28:42.000Z</time>
</trkpt>
<trkpt lat="28.169217" lon="-17.328481">
<ele>198.168900</ele>
<time>2009-06-07T15:29:02.000Z</time>
</trkpt>
<trkpt lat="28.169096" lon="-17.328255">
<ele>200.572300</ele>
<time>2009-06-07T15:29:33.000Z</time>
</trkpt>
<trkpt lat="28.169027" lon="-17.328001">
<ele>202.975500</ele>
<time>2009-06-07T15:29:55.000Z</time>
</trkpt>
<trkpt lat="28.169012" lon="-17.327816">
<ele>204.898100</ele>
<time>2009-06-07T15:30:14.000Z</time>
</trkpt>
<trkpt lat="28.168930" lon="-17.327571">
<ele>207.301400</ele>
<time>2009-06-07T15:30:37.000Z</time>
</trkpt>
<trkpt lat="28.168903" lon="-17.327412">
<ele>209.224100</ele>
<time>2009-06-07T15:30:51.000Z</time>
</trkpt>
<trkpt lat="28.168956" lon="-17.327269">
<ele>209.704800</ele>
<time>2009-06-07T15:31:06.000Z</time>
</trkpt>
<trkpt lat="28.168925" lon="-17.327119">
<ele>211.627400</ele>
<time>2009-06-07T15:31:30.000Z</time>
</trkpt>
<trkpt lat="28.168862" lon="-17.327004">
<ele>212.588600</ele>
<time>2009-06-07T15:31:52.000Z</time>
</trkpt>
<trkpt lat="28.168861" lon="-17.326918">
<ele>213.069300</ele>
<time>2009-06-07T15:32:12.000Z</time>
</trkpt>
<trkpt lat="28.168838" lon="-17.326843">
<ele>214.030600</ele>
<time>2009-06-07T15:32:21.000Z</time>
</trkpt>
<trkpt lat="28.168862" lon="-17.326664">
<ele>214.511200</ele>
<time>2009-06-07T15:32:35.000Z</time>
</trkpt>
<trkpt lat="28.168869" lon="-17.326563">
<ele>215.953200</ele>
<time>2009-06-07T15:32:47.000Z</time>
</trkpt>
<trkpt lat="28.168870" lon="-17.326495">
<ele>216.434000</ele>
<time>2009-06-07T15:33:02.000Z</time>
</trkpt>
<trkpt lat="28.168867" lon="-17.326446">
<ele>216.914700</ele>
<time>2009-06-07T15:33:10.000Z</time>
</trkpt>
<trkpt lat="28.168871" lon="-17.326343">
<ele>217.876000</ele>
<time>2009-06-07T15:33:25.000Z</time>
</trkpt>
<trkpt lat="28.168931" lon="-17.326085">
<ele>219.318000</ele>
<time>2009-06-07T15:33:46.000Z</time>
</trkpt>
<trkpt lat="28.168929" lon="-17.326052">
<ele>219.798600</ele>
<time>2009-06-07T15:33:48.000Z</time>
</trkpt>
<trkpt lat="28.168909" lon="-17.325932">
<ele>220.759900</ele>
<time>2009-06-07T15:34:00.000Z</time>
</trkpt>
<trkpt lat="28.168923" lon="-17.325780">
<ele>223.163200</ele>
<time>2009-06-07T15:34:19.000Z</time>
</trkpt>
<trkpt lat="28.168943" lon="-17.325697">
<ele>224.605200</ele>
<time>2009-06-07T15:34:29.000Z</time>
</trkpt>
<trkpt lat="28.168915" lon="-17.325609">
<ele>225.566500</ele>
<time>2009-06-07T15:34:43.000Z</time>
</trkpt>
<trkpt lat="28.168891" lon="-17.325610">
<ele>226.047100</ele>
<time>2009-06-07T15:34:45.000Z</time>
</trkpt>
<trkpt lat="28.168829" lon="-17.325676">
<ele>227.489100</ele>
<time>2009-06-07T15:34:54.000Z</time>
</trkpt>
<trkpt lat="28.168797" lon="-17.325755">
<ele>228.450400</ele>
<time>2009-06-07T15:35:01.000Z</time>
</trkpt>
<trkpt lat="28.168794" lon="-17.325852">
<ele>228.931200</ele>
<time>2009-06-07T15:35:13.000Z</time>
</trkpt>
<trkpt lat="28.168750" lon="-17.325967">
<ele>229.892300</ele>
<time>2009-06-07T15:35:28.000Z</time>
</trkpt>
<trkpt lat="28.168657" lon="-17.326142">
<ele>232.295800</ele>
<time>2009-06-07T15:35:46.000Z</time>
</trkpt>
<trkpt lat="28.168628" lon="-17.326123">
<ele>232.776500</ele>
<time>2009-06-07T15:35:50.000Z</time>
</trkpt>
<trkpt lat="28.168620" lon="-17.325997">
<ele>234.699100</ele>
<time>2009-06-07T15:36:09.000Z</time>
</trkpt>
<trkpt lat="28.168639" lon="-17.325918">
<ele>236.141000</ele>
<time>2009-06-07T15:36:29.000Z</time>
</trkpt>
<trkpt lat="28.168662" lon="-17.325916">
<ele>236.621700</ele>
<time>2009-06-07T15:36:46.000Z</time>
</trkpt>
<trkpt lat="28.168656" lon="-17.325861">
<ele>236.621700</ele>
<time>2009-06-07T15:37:01.000Z</time>
</trkpt>
<trkpt lat="28.168687" lon="-17.325642">
<ele>239.986200</ele>
<time>2009-06-07T15:37:24.000Z</time>
</trkpt>
<trkpt lat="28.168696" lon="-17.325501">
<ele>242.870200</ele>
<time>2009-06-07T15:37:43.000Z</time>
</trkpt>
<trkpt lat="28.168702" lon="-17.325329">
<ele>245.273400</ele>
<time>2009-06-07T15:38:01.000Z</time>
</trkpt>
<trkpt lat="28.168686" lon="-17.325215">
<ele>247.196000</ele>
<time>2009-06-07T15:38:18.000Z</time>
</trkpt>
<trkpt lat="28.168665" lon="-17.325153">
<ele>248.157600</ele>
<time>2009-06-07T15:38:34.000Z</time>
</trkpt>
<trkpt lat="28.168656" lon="-17.325173">
<ele>248.638200</ele>
<time>2009-06-07T15:39:04.000Z</time>
</trkpt>
<trkpt lat="28.168583" lon="-17.324928">
<ele>249.118800</ele>
<time>2009-06-07T15:39:36.000Z</time>
</trkpt>
<trkpt lat="28.168578" lon="-17.324786">
<ele>249.599500</ele>
<time>2009-06-07T15:39:50.000Z</time>
</trkpt>
<trkpt lat="28.168569" lon="-17.324700">
<ele>251.522100</ele>
<time>2009-06-07T15:40:01.000Z</time>
</trkpt>
<trkpt lat="28.168480" lon="-17.324558">
<ele>253.925400</ele>
<time>2009-06-07T15:40:15.000Z</time>
</trkpt>
<trkpt lat="28.168433" lon="-17.324495">
<ele>252.964000</ele>
<time>2009-06-07T15:40:27.000Z</time>
</trkpt>
<trkpt lat="28.168430" lon="-17.324476">
<ele>250.560800</ele>
<time>2009-06-07T15:40:30.000Z</time>
</trkpt>
<trkpt lat="28.168429" lon="-17.324455">
<ele>249.118800</ele>
<time>2009-06-07T15:40:33.000Z</time>
</trkpt>
<trkpt lat="28.168426" lon="-17.324438">
<ele>253.925400</ele>
<time>2009-06-07T15:40:35.000Z</time>
</trkpt>
<trkpt lat="28.168422" lon="-17.324431">
<ele>253.925400</ele>
<time>2009-06-07T15:40:36.000Z</time>
</trkpt>
<trkpt lat="28.168416" lon="-17.324374">
<ele>256.809300</ele>
<time>2009-06-07T15:40:42.000Z</time>
</trkpt>
<trkpt lat="28.168437" lon="-17.324234">
<ele>259.212600</ele>
<time>2009-06-07T15:41:03.000Z</time>
</trkpt>
<trkpt lat="28.168438" lon="-17.324210">
<ele>260.654500</ele>
<time>2009-06-07T15:41:30.000Z</time>
</trkpt>
<trkpt lat="28.168466" lon="-17.324019">
<ele>262.096600</ele>
<time>2009-06-07T15:41:48.000Z</time>
</trkpt>
<trkpt lat="28.168455" lon="-17.323883">
<ele>263.538600</ele>
<time>2009-06-07T15:42:02.000Z</time>
</trkpt>
<trkpt lat="28.168456" lon="-17.323838">
<ele>264.019300</ele>
<time>2009-06-07T15:42:06.000Z</time>
</trkpt>
<trkpt lat="28.168393" lon="-17.323723">
<ele>266.422500</ele>
<time>2009-06-07T15:42:23.000Z</time>
</trkpt>
<trkpt lat="28.168374" lon="-17.323547">
<ele>269.787100</ele>
<time>2009-06-07T15:42:42.000Z</time>
</trkpt>
<trkpt lat="28.168356" lon="-17.323495">
<ele>269.787100</ele>
<time>2009-06-07T15:43:02.000Z</time>
</trkpt>
<trkpt lat="28.168302" lon="-17.323292">
<ele>271.229100</ele>
<time>2009-06-07T15:43:18.000Z</time>
</trkpt>
<trkpt lat="28.168259" lon="-17.323125">
<ele>271.709700</ele>
<time>2009-06-07T15:43:32.000Z</time>
</trkpt>
<trkpt lat="28.168200" lon="-17.323195">
<ele>273.632400</ele>
<time>2009-06-07T15:43:46.000Z</time>
</trkpt>
<trkpt lat="28.168230" lon="-17.323254">
<ele>275.555100</ele>
<time>2009-06-07T15:43:52.000Z</time>
</trkpt>
<trkpt lat="28.168242" lon="-17.323302">
<ele>274.593800</ele>
<time>2009-06-07T15:43:56.000Z</time>
</trkpt>
<trkpt lat="28.168198" lon="-17.323397">
<ele>275.555100</ele>
<time>2009-06-07T15:44:10.000Z</time>
</trkpt>
<trkpt lat="28.168136" lon="-17.323287">
<ele>277.958300</ele>
<time>2009-06-07T15:44:30.000Z</time>
</trkpt>
<trkpt lat="28.168099" lon="-17.323153">
<ele>279.880900</ele>
<time>2009-06-07T15:44:43.000Z</time>
</trkpt>
<trkpt lat="28.168074" lon="-17.323080">
<ele>280.361700</ele>
<time>2009-06-07T15:44:55.000Z</time>
</trkpt>
<trkpt lat="28.168038" lon="-17.322976">
<ele>281.323000</ele>
<time>2009-06-07T15:45:11.000Z</time>
</trkpt>
<trkpt lat="28.168030" lon="-17.322862">
<ele>282.765000</ele>
<time>2009-06-07T15:45:22.000Z</time>
</trkpt>
<trkpt lat="28.167978" lon="-17.322691">
<ele>284.687600</ele>
<time>2009-06-07T15:45:39.000Z</time>
</trkpt>
<trkpt lat="28.167894" lon="-17.322587">
<ele>287.571400</ele>
<time>2009-06-07T15:45:54.000Z</time>
</trkpt>
<trkpt lat="28.167871" lon="-17.322474">
<ele>289.013500</ele>
<time>2009-06-07T15:46:08.000Z</time>
</trkpt>
<trkpt lat="28.167790" lon="-17.322271">
<ele>292.378200</ele>
<time>2009-06-07T15:46:30.000Z</time>
</trkpt>
<trkpt lat="28.167737" lon="-17.322160">
<ele>294.781400</ele>
<time>2009-06-07T15:46:53.000Z</time>
</trkpt>
<trkpt lat="28.167674" lon="-17.322056">
<ele>295.262000</ele>
<time>2009-06-07T15:47:20.000Z</time>
</trkpt>
<trkpt lat="28.167645" lon="-17.322024">
<ele>295.742700</ele>
<time>2009-06-07T15:47:23.000Z</time>
</trkpt>
<trkpt lat="28.167606" lon="-17.321913">
<ele>297.184700</ele>
<time>2009-06-07T15:47:35.000Z</time>
</trkpt>
<trkpt lat="28.167530" lon="-17.321843">
<ele>299.588000</ele>
<time>2009-06-07T15:47:49.000Z</time>
</trkpt>
<trkpt lat="28.167332" lon="-17.321707">
<ele>301.991300</ele>
<time>2009-06-07T15:48:11.000Z</time>
</trkpt>
<trkpt lat="28.167221" lon="-17.321599">
<ele>303.433200</ele>
<time>2009-06-07T15:48:28.000Z</time>
</trkpt>
<trkpt lat="28.167192" lon="-17.321581">
<ele>303.433200</ele>
<time>2009-06-07T15:48:31.000Z</time>
</trkpt>
<trkpt lat="28.167108" lon="-17.321486">
<ele>304.875200</ele>
<time>2009-06-07T15:48:44.000Z</time>
</trkpt>
<trkpt lat="28.166933" lon="-17.321184">
<ele>305.836700</ele>
<time>2009-06-07T15:49:13.000Z</time>
</trkpt>
<trkpt lat="28.166890" lon="-17.320995">
<ele>306.797900</ele>
<time>2009-06-07T15:49:27.000Z</time>
</trkpt>
<trkpt lat="28.166869" lon="-17.320958">
<ele>306.797900</ele>
<time>2009-06-07T15:49:31.000Z</time>
</trkpt>
<trkpt lat="28.166777" lon="-17.320816">
<ele>308.720500</ele>
<time>2009-06-07T15:49:47.000Z</time>
</trkpt>
<trkpt lat="28.166643" lon="-17.320697">
<ele>310.162500</ele>
<time>2009-06-07T15:50:02.000Z</time>
</trkpt>
<trkpt lat="28.166586" lon="-17.320624">
<ele>312.085200</ele>
<time>2009-06-07T15:50:21.000Z</time>
</trkpt>
<trkpt lat="28.166492" lon="-17.320458">
<ele>313.527200</ele>
<time>2009-06-07T15:50:35.000Z</time>
</trkpt>
<trkpt lat="28.166504" lon="-17.320458">
<ele>314.488400</ele>
<time>2009-06-07T15:50:39.000Z</time>
</trkpt>
<trkpt lat="28.166505" lon="-17.320460">
<ele>313.046500</ele>
<time>2009-06-07T15:50:48.000Z</time>
</trkpt>
<trkpt lat="28.166505" lon="-17.320462">
<ele>313.527200</ele>
<time>2009-06-07T15:50:54.000Z</time>
</trkpt>
<trkpt lat="28.166506" lon="-17.320463">
<ele>313.046500</ele>
<time>2009-06-07T15:51:01.000Z</time>
</trkpt>
</trkseg>
</trk>
</gpx>
